Observation data for JA Ranch on 08/11/2019      Previous  Date  Next       Current Mesonet Observations  Soil Data  Daily Summary Page  Observations in Plain Language
KPD3 110500Z 11002KT 26/14 A2998 RMK A01 T02600139  RH  047%=      5-min Rain = 0
KPD3 110501Z 11002KT 26/14 A2998 RMK A01 T02610139  RH  047%=      5-min Rain = 0
KPD3 110502Z 10002KT 26/14 A2998 RMK A01 T02600139  RH  047%=      5-min Rain = 0
KPD3 110503Z 11002KT 26/14 A2998 RMK A01 T02600139  RH  047%=      5-min Rain = 0
KPD3 110504Z 12002KT 26/14 A2998 RMK A01 T02600139  RH  047%=      5-min Rain = 0
KPD3 110505Z 13002KT 26/14 A2998 RMK A01 T02610139  RH  047%=      5-min Rain = 0
KPD3 110506Z 13002KT 26/14 A2998 RMK A01 T02600140  RH  048%=      5-min Rain = 0
KPD3 110507Z 13002KT 26/14 A2998 RMK A01 T02560139  RH  048%=      5-min Rain = 0
KPD3 110508Z 14002KT 25/14 A2998 RMK A01 T02540139  RH  049%=      5-min Rain = 0
KPD3 110509Z 13002KT 25/14 A2998 RMK A01 T02530139  RH  049%=      5-min Rain = 0
KPD3 110510Z 13002KT 25/14 A2998 RMK A01 T02520139  RH  049%=      5-min Rain = 0
KPD3 110511Z 13002KT 25/14 A2998 RMK A01 T02520140  RH  050%=      5-min Rain = 0
KPD3 110512Z 13002KT 25/14 A2998 RMK A01 T02500140  RH  050%=      5-min Rain = 0
KPD3 110513Z 13002KT 25/14 A2998 RMK A01 T02490139  RH  050%=      5-min Rain = 0
KPD3 110514Z 14002KT 25/14 A2998 RMK A01 T02480139  RH  051%=      5-min Rain = 0
KPD3 110515Z 13002KT 25/14 A2998 RMK A01 T02490139  RH  050%=      5-min Rain = 0
KPD3 110516Z 13002KT 25/14 A2998 RMK A01 T02500139  RH  050%=      5-min Rain = 0
KPD3 110517Z 13003KT 25/14 A2998 RMK A01 T02510139  RH  050%=      5-min Rain = 0
KPD3 110518Z 13003KT 25/14 A2998 RMK A01 T02520139  RH  049%=      5-min Rain = 0
KPD3 110519Z 13003KT 25/14 A2998 RMK A01 T02520139  RH  049%=      5-min Rain = 0
KPD3 110520Z 13002KT 25/14 A2998 RMK A01 T02530140  RH  049%=      5-min Rain = 0
KPD3 110521Z 14003KT 25/14 A2998 RMK A01 T02530139  RH  049%=      5-min Rain = 0
KPD3 110522Z 15002KT 25/14 A2998 RMK A01 T02540139  RH  049%=      5-min Rain = 0
KPD3 110523Z 15002KT 26/14 A2998 RMK A01 T02550140  RH  049%=      5-min Rain = 0
KPD3 110524Z 13002KT 26/14 A2998 RMK A01 T02560139  RH  049%=      5-min Rain = 0
KPD3 110525Z 14002KT 26/14 A2998 RMK A01 T02560139  RH  048%=      5-min Rain = 0
KPD3 110526Z 14002KT 26/14 A2998 RMK A01 T02580139  RH  048%=      5-min Rain = 0
KPD3 110527Z 13002KT 26/14 A2998 RMK A01 T02590139  RH  048%=      5-min Rain = 0
KPD3 110528Z 13002KT 26/14 A2998 RMK A01 T02590140  RH  048%=      5-min Rain = 0
KPD3 110529Z 13002KT 26/14 A2998 RMK A01 T02590140  RH  048%=      5-min Rain = 0
KPD3 110530Z 13002KT 26/14 A2998 RMK A01 T02590139  RH  048%=      5-min Rain = 0
KPD3 110531Z 13002KT 26/14 A2998 RMK A01 T02590140  RH  048%=      5-min Rain = 0
KPD3 110532Z 13002KT 26/14 A2998 RMK A01 T02590139  RH  048%=      5-min Rain = 0
KPD3 110533Z 13002KT 26/14 A2998 RMK A01 T02590139  RH  048%=      5-min Rain = 0
KPD3 110534Z 14001KT 26/14 A2998 RMK A01 T02590140  RH  048%=      5-min Rain = 0
KPD3 110535Z 14001KT 26/14 A2998 RMK A01 T02590140  RH  048%=      5-min Rain = 0
KPD3 110536Z 14002KT 26/14 A2998 RMK A01 T02580139  RH  048%=      5-min Rain = 0
KPD3 110537Z 13002KT 26/14 A2998 RMK A01 T02580139  RH  048%=      5-min Rain = 0
KPD3 110538Z 13002KT 26/14 A2998 RMK A01 T02590139  RH  048%=      5-min Rain = 0
KPD3 110539Z 13002KT 26/14 A2998 RMK A01 T02590139  RH  048%=      5-min Rain = 0
KPD3 110540Z 12001KT 26/14 A2998 RMK A01 T02590140  RH  048%=      5-min Rain = 0
KPD3 110541Z 12001KT 26/14 A2998 RMK A01 T02590140  RH  048%=      5-min Rain = 0
KPD3 110542Z 13001KT 26/14 A2998 RMK A01 T02580140  RH  048%=      5-min Rain = 0
KPD3 110543Z 12000KT 26/14 A2998 RMK A01 T02560140  RH  049%=      5-min Rain = 0
KPD3 110544Z 12000KT 25/14 A2998 RMK A01 T02540141  RH  049%=      5-min Rain = 0
KPD3 110545Z 00000KT 25/14 A2998 RMK A01 T02520140  RH  050%=      5-min Rain = 0
KPD3 110546Z 00000KT 25/14 A2998 RMK A01 T02500140  RH  050%=      5-min Rain = 0
KPD3 110547Z 00000KT 25/14 A2998 RMK A01 T02480139  RH  051%=      5-min Rain = 0
KPD3 110548Z 00000KT 25/14 A2998 RMK A01 T02480140  RH  051%=      5-min Rain = 0
KPD3 110549Z 00000KT 25/14 A2998 RMK A01 T02460140  RH  051%=      5-min Rain = 0
KPD3 110550Z 00000KT 25/14 A2998 RMK A01 T02460140  RH  052%=      5-min Rain = 0
KPD3 110551Z 00000KT 25/14 A2998 RMK A01 T02460140  RH  051%=      5-min Rain = 0
KPD3 110552Z 00000KT 25/14 A2998 RMK A01 T02480140  RH  051%=      5-min Rain = 0
KPD3 110553Z 00000KT 25/14 A2998 RMK A01 T02480140  RH  051%=      5-min Rain = 0
KPD3 110554Z 00000KT 25/14 A2998 RMK A01 T02500140  RH  051%=      5-min Rain = 0
KPD3 110555Z 00000KT 25/14 A2998 RMK A01 T02510140  RH  050%=      5-min Rain = 0
KPD3 110556Z 11001KT 25/14 A2998 RMK A01 T02520141  RH  050%=      5-min Rain = 0
KPD3 110557Z 10001KT 25/14 A2998 RMK A01 T02510139  RH  050%=      5-min Rain = 0
KPD3 110558Z 10001KT 25/14 A2998 RMK A01 T02530140  RH  049%=      5-min Rain = 0
KPD3 110559Z 10001KT 25/14 A2998 RMK A01 T02540141  RH  049%=      5-min Rain = 0
KPD3 110600Z 10001KT 25/14 A2998 RMK A01 T02530142  RH  050%=      5-min Rain = 0
KPD3 110601Z 10002KT 25/14 A2998 RMK A01 T02510142  RH  051%=      5-min Rain = 0
KPD3 110602Z 10001KT 25/14 A2998 RMK A01 T02500141  RH  051%=      5-min Rain = 0
KPD3 110603Z 11002KT 25/14 A2997 RMK A01 T02500140  RH  051%=      5-min Rain = 0
KPD3 110604Z 11002KT 25/14 A2997 RMK A01 T02510140  RH  050%=      5-min Rain = 0
KPD3 110605Z 10002KT 25/14 A2997 RMK A01 T02520141  RH  050%=      5-min Rain = 0
KPD3 110606Z 11002KT 25/14 A2997 RMK A01 T02530141  RH  050%=      5-min Rain = 0
KPD3 110607Z 11002KT 25/14 A2997 RMK A01 T02530140  RH  050%=      5-min Rain = 0
KPD3 110608Z 11002KT 26/14 A2997 RMK A01 T02550141  RH  049%=      5-min Rain = 0
KPD3 110609Z 11003KT 26/14 A2997 RMK A01 T02550141  RH  049%=      5-min Rain = 0
KPD3 110610Z 11003KT 26/14 A2997 RMK A01 T02550140  RH  049%=      5-min Rain = 0
KPD3 110611Z 12003KT 26/14 A2997 RMK A01 T02560141  RH  049%=      5-min Rain = 0
KPD3 110612Z 12003KT 26/14 A2997 RMK A01 T02570141  RH  049%=      5-min Rain = 0
KPD3 110613Z 11003KT 26/14 A2997 RMK A01 T02570141  RH  049%=      5-min Rain = 0
KPD3 110614Z 11003KT 26/14 A2997 RMK A01 T02570142  RH  049%=      5-min Rain = 0
KPD3 110615Z 11003KT 26/14 A2997 RMK A01 T02560141  RH  049%=      5-min Rain = 0
KPD3 110616Z 11003KT 26/14 A2997 RMK A01 T02560142  RH  049%=      5-min Rain = 0
KPD3 110617Z 11003KT 26/14 A2997 RMK A01 T02550141  RH  049%=      5-min Rain = 0
KPD3 110618Z 11003KT 26/14 A2997 RMK A01 T02550141  RH  049%=      5-min Rain = 0
KPD3 110619Z 11003KT 26/14 A2997 RMK A01 T02560141  RH  049%=      5-min Rain = 0
KPD3 110620Z 11003KT 26/14 A2997 RMK A01 T02550141  RH  049%=      5-min Rain = 0
KPD3 110621Z 11003KT 26/14 A2997 RMK A01 T02550142  RH  049%=      5-min Rain = 0
KPD3 110622Z 11003KT 26/14 A2997 RMK A01 T02550141  RH  049%=      5-min Rain = 0
KPD3 110623Z 11002KT 26/14 A2997 RMK A01 T02550141  RH  049%=      5-min Rain = 0
KPD3 110624Z 11003KT 26/14 A2997 RMK A01 T02550142  RH  050%=      5-min Rain = 0
KPD3 110625Z 11002KT 25/14 A2997 RMK A01 T02540141  RH  050%=      5-min Rain = 0
KPD3 110626Z 10002KT 25/14 A2997 RMK A01 T02540141  RH  049%=      5-min Rain = 0
KPD3 110627Z 10002KT 25/14 A2997 RMK A01 T02540141  RH  050%=      5-min Rain = 0
KPD3 110628Z 10002KT 26/14 A2997 RMK A01 T02550141  RH  050%=      5-min Rain = 0
KPD3 110629Z 10001KT 25/14 A2997 RMK A01 T02540141  RH  049%=      5-min Rain = 0
KPD3 110630Z 10001KT 26/14 A2997 RMK A01 T02550142  RH  050%=      5-min Rain = 0
KPD3 110631Z 09000KT 25/14 A2997 RMK A01 T02540142  RH  050%=      5-min Rain = 0
KPD3 110632Z 11000KT 25/14 A2997 RMK A01 T02530142  RH  050%=      5-min Rain = 0
KPD3 110633Z 00000KT 25/14 A2997 RMK A01 T02500142  RH  051%=      5-min Rain = 0
KPD3 110634Z 34000KT 25/14 A2997 RMK A01 T02470141  RH  052%=      5-min Rain = 0
KPD3 110635Z 34001KT 25/14 A2997 RMK A01 T02450141  RH  052%=      5-min Rain = 0
KPD3 110636Z 33001KT 24/14 A2997 RMK A01 T02430141  RH  053%=      5-min Rain = 0
KPD3 110637Z 32001KT 24/14 A2997 RMK A01 T02410141  RH  054%=      5-min Rain = 0
KPD3 110638Z 31001KT 24/14 A2997 RMK A01 T02390141  RH  054%=      5-min Rain = 0
KPD3 110639Z 31001KT 24/14 A2997 RMK A01 T02380141  RH  055%=      5-min Rain = 0
KPD3 110640Z 31001KT 24/14 A2997 RMK A01 T02370141  RH  055%=      5-min Rain = 0
KPD3 110641Z 30001KT 24/14 A2997 RMK A01 T02370142  RH  055%=      5-min Rain = 0
KPD3 110642Z 31002KT 24/14 A2997 RMK A01 T02370141  RH  055%=      5-min Rain = 0
KPD3 110643Z 31001KT 24/14 A2997 RMK A01 T02370142  RH  055%=      5-min Rain = 0
KPD3 110644Z 30001KT 24/14 A2997 RMK A01 T02360142  RH  055%=      5-min Rain = 0
KPD3 110645Z 31001KT 24/14 A2997 RMK A01 T02360142  RH  055%=      5-min Rain = 0
KPD3 110646Z 30001KT 24/14 A2997 RMK A01 T02360142  RH  056%=      5-min Rain = 0
KPD3 110647Z 31000KT 24/14 A2997 RMK A01 T02350142  RH  056%=      5-min Rain = 0
KPD3 110648Z 25000KT 24/14 A2996 RMK A01 T02350142  RH  056%=      5-min Rain = 0
KPD3 110649Z 33000KT 24/14 A2996 RMK A01 T02350143  RH  056%=      5-min Rain = 0
KPD3 110650Z 32000KT 24/14 A2996 RMK A01 T02360142  RH  056%=      5-min Rain = 0
KPD3 110651Z 16000KT 24/14 A2996 RMK A01 T02360142  RH  056%=      5-min Rain = 0
KPD3 110652Z 00000KT 24/14 A2996 RMK A01 T02370142  RH  055%=      5-min Rain = 0
KPD3 110653Z 09000KT 24/14 A2996 RMK A01 T02380143  RH  055%=      5-min Rain = 0
KPD3 110654Z 13000KT 24/14 A2996 RMK A01 T02390143  RH  055%=      5-min Rain = 0
KPD3 110655Z 11000KT 24/14 A2996 RMK A01 T02390143  RH  055%=      5-min Rain = 0
KPD3 110656Z 16000KT 24/14 A2997 RMK A01 T02390143  RH  055%=      5-min Rain = 0
KPD3 110657Z 13001KT 24/14 A2997 RMK A01 T02400143  RH  055%=      5-min Rain = 0
KPD3 110658Z 15000KT 24/14 A2997 RMK A01 T02400143  RH  054%=      5-min Rain = 0
KPD3 110659Z 15001KT 24/14 A2997 RMK A01 T02420143  RH  054%=      5-min Rain = 0
KPD3 110700Z 16001KT 24/14 A2997 RMK A01 T02430144  RH  054%=      5-min Rain = 0
KPD3 110701Z 12000KT 24/14 A2997 RMK A01 T02430143  RH  053%=      5-min Rain = 0
KPD3 110702Z 14000KT 24/14 A2997 RMK A01 T02440144  RH  054%=      5-min Rain = 0
KPD3 110703Z 00000KT 24/14 A2996 RMK A01 T02420143  RH  054%=      5-min Rain = 0
KPD3 110704Z 22000KT 24/14 A2996 RMK A01 T02420143  RH  054%=      5-min Rain = 0
KPD3 110705Z 00000KT 24/14 A2996 RMK A01 T02400143  RH  054%=      5-min Rain = 0
KPD3 110706Z 28000KT 24/14 A2996 RMK A01 T02390143  RH  055%=      5-min Rain = 0
KPD3 110707Z 27001KT 24/14 A2996 RMK A01 T02380143  RH  055%=      5-min Rain = 0
KPD3 110708Z 28000KT 24/14 A2996 RMK A01 T02370143  RH  056%=      5-min Rain = 0
KPD3 110709Z 29001KT 24/14 A2996 RMK A01 T02350143  RH  056%=      5-min Rain = 0
KPD3 110710Z 30001KT 24/14 A2996 RMK A01 T02350143  RH  056%=      5-min Rain = 0
KPD3 110711Z 32001KT 23/14 A2996 RMK A01 T02340143  RH  056%=      5-min Rain = 0
KPD3 110712Z 33001KT 23/14 A2996 RMK A01 T02340143  RH  057%=      5-min Rain = 0
KPD3 110713Z 33001KT 23/14 A2996 RMK A01 T02340144  RH  057%=      5-min Rain = 0
KPD3 110714Z 33001KT 23/14 A2996 RMK A01 T02340144  RH  057%=      5-min Rain = 0
KPD3 110715Z 32001KT 23/14 A2996 RMK A01 T02330143  RH  057%=      5-min Rain = 0
KPD3 110716Z 33001KT 23/14 A2996 RMK A01 T02330144  RH  057%=      5-min Rain = 0
KPD3 110717Z 33001KT 23/14 A2996 RMK A01 T02330144  RH  057%=      5-min Rain = 0
KPD3 110718Z 32001KT 23/14 A2996 RMK A01 T02330144  RH  057%=      5-min Rain = 0
KPD3 110719Z 32001KT 23/14 A2996 RMK A01 T02330144  RH  057%=      5-min Rain = 0
KPD3 110720Z 33001KT 23/14 A2996 RMK A01 T02330144  RH  057%=      5-min Rain = 0
KPD3 110721Z 34001KT 23/15 A2996 RMK A01 T02330145  RH  058%=      5-min Rain = 0
KPD3 110722Z 33000KT 23/15 A2996 RMK A01 T02320145  RH  058%=      5-min Rain = 0
KPD3 110723Z 33001KT 23/15 A2996 RMK A01 T02330145  RH  058%=      5-min Rain = 0
KPD3 110724Z 32000KT 23/15 A2997 RMK A01 T02340145  RH  057%=      5-min Rain = 0
KPD3 110725Z 34000KT 24/15 A2997 RMK A01 T02380145  RH  056%=      5-min Rain = 0
KPD3 110726Z 34001KT 24/15 A2997 RMK A01 T02390145  RH  056%=      5-min Rain = 0
KPD3 110727Z 34001KT 24/15 A2997 RMK A01 T02410145  RH  055%=      5-min Rain = 0
KPD3 110728Z 33001KT 24/15 A2997 RMK A01 T02420146  RH  055%=      5-min Rain = 0
KPD3 110729Z 33000KT 24/15 A2997 RMK A01 T02420146  RH  055%=      5-min Rain = 0
KPD3 110730Z 31001KT 24/15 A2997 RMK A01 T02410145  RH  055%=      5-min Rain = 0
KPD3 110731Z 32002KT 24/15 A2997 RMK A01 T02400145  RH  055%=      5-min Rain = 0
KPD3 110732Z 32003KT 24/15 A2997 RMK A01 T02390145  RH  056%=      5-min Rain = 0
KPD3 110733Z 32003KT 24/15 A2997 RMK A01 T02370145  RH  056%=      5-min Rain = 0
KPD3 110734Z 32004KT 24/15 A2997 RMK A01 T02360146  RH  057%=      5-min Rain = 0
KPD3 110735Z 31004KT 23/15 A2997 RMK A01 T02340146  RH  058%=      5-min Rain = 0
KPD3 110736Z 32004KT 23/15 A2997 RMK A01 T02330147  RH  058%=      5-min Rain = 0
KPD3 110737Z 32005KT 23/15 A2997 RMK A01 T02320147  RH  059%=      5-min Rain = 0
KPD3 110738Z 32005KT 23/15 A2997 RMK A01 T02310147  RH  059%=      5-min Rain = 0
KPD3 110739Z 32005KT 23/15 A2997 RMK A01 T02310147  RH  059%=      5-min Rain = 0
KPD3 110740Z 33004KT 23/15 A2997 RMK A01 T02310147  RH  059%=      5-min Rain = 0
KPD3 110741Z 33004KT 23/15 A2997 RMK A01 T02300147  RH  060%=      5-min Rain = 0
KPD3 110742Z 33005KT 23/15 A2997 RMK A01 T02300147  RH  060%=      5-min Rain = 0
KPD3 110743Z 33004KT 23/15 A2997 RMK A01 T02310148  RH  059%=      5-min Rain = 0
KPD3 110744Z 32005KT 23/15 A2997 RMK A01 T02310148  RH  059%=      5-min Rain = 0
KPD3 110745Z 32004KT 23/15 A2997 RMK A01 T02310148  RH  059%=      5-min Rain = 0
KPD3 110746Z 33004KT 23/15 A2997 RMK A01 T02310148  RH  059%=      5-min Rain = 0
KPD3 110747Z 33004KT 23/15 A2997 RMK A01 T02310147  RH  059%=      5-min Rain = 0
KPD3 110748Z 34004KT 23/15 A2997 RMK A01 T02310148  RH  059%=      5-min Rain = 0
KPD3 110749Z 34004KT 23/15 A2997 RMK A01 T02310148  RH  060%=      5-min Rain = 0
KPD3 110750Z 34004KT 23/15 A2997 RMK A01 T02300148  RH  060%=      5-min Rain = 0
KPD3 110751Z 35004KT 23/15 A2997 RMK A01 T02300148  RH  060%=      5-min Rain = 0
KPD3 110752Z 35003KT 23/15 A2997 RMK A01 T02290148  RH  060%=      5-min Rain = 0
KPD3 110753Z 35004KT 23/15 A2997 RMK A01 T02290148  RH  060%=      5-min Rain = 0
KPD3 110754Z 35004KT 23/15 A2997 RMK A01 T02280148  RH  060%=      5-min Rain = 0
KPD3 110755Z 35004KT 23/15 A2997 RMK A01 T02280148  RH  061%=      5-min Rain = 0
KPD3 110756Z 35004KT 23/15 A2997 RMK A01 T02280148  RH  061%=      5-min Rain = 0
KPD3 110757Z 35004KT 23/15 A2997 RMK A01 T02280148  RH  061%=      5-min Rain = 0
KPD3 110758Z 35004KT 23/15 A2997 RMK A01 T02270148  RH  061%=      5-min Rain = 0
KPD3 110759Z 36004KT 23/15 A2997 RMK A01 T02270148  RH  061%=      5-min Rain = 0
KPD3 110800Z 00003KT 23/15 A2997 RMK A01 T02270148  RH  061%=      5-min Rain = 0
KPD3 110801Z 00003KT 23/15 A2997 RMK A01 T02270148  RH  061%=      5-min Rain = 0
KPD3 110802Z 00003KT 23/15 A2997 RMK A01 T02270148  RH  061%=      5-min Rain = 0
KPD3 110803Z 00003KT 23/15 A2997 RMK A01 T02270148  RH  061%=      5-min Rain = 0
KPD3 110804Z 00003KT 23/15 A2997 RMK A01 T02260147  RH  061%=      5-min Rain = 0
KPD3 110805Z 00003KT 23/15 A2996 RMK A01 T02260147  RH  061%=      5-min Rain = 0
KPD3 110806Z 36002KT 23/15 A2996 RMK A01 T02260147  RH  061%=      5-min Rain = 0
KPD3 110807Z 35002KT 23/15 A2996 RMK A01 T02260147  RH  061%=      5-min Rain = 0
KPD3 110808Z 35002KT 23/15 A2997 RMK A01 T02260147  RH  061%=      5-min Rain = 0
KPD3 110809Z 35002KT 23/15 A2997 RMK A01 T02260147  RH  061%=      5-min Rain = 0
KPD3 110810Z 35002KT 23/15 A2997 RMK A01 T02260147  RH  061%=      5-min Rain = 0
KPD3 110811Z 35002KT 23/15 A2997 RMK A01 T02260146  RH  061%=      5-min Rain = 0
KPD3 110812Z 36001KT 23/15 A2997 RMK A01 T02260147  RH  061%=      5-min Rain = 0
KPD3 110813Z 00002KT 23/15 A2997 RMK A01 T02260147  RH  061%=      5-min Rain = 0
KPD3 110814Z 36002KT 23/15 A2997 RMK A01 T02260148  RH  061%=      5-min Rain = 0
KPD3 110815Z 34002KT 23/15 A2997 RMK A01 T02260147  RH  061%=      5-min Rain = 0
KPD3 110816Z 33002KT 23/15 A2997 RMK A01 T02260148  RH  061%=      5-min Rain = 0
KPD3 110817Z 33003KT 23/15 A2997 RMK A01 T02250147  RH  061%=      5-min Rain = 0
KPD3 110818Z 33002KT 23/15 A2997 RMK A01 T02250147  RH  061%=      5-min Rain = 0
KPD3 110819Z 33003KT 22/15 A2997 RMK A01 T02240147  RH  062%=      5-min Rain = 0
KPD3 110820Z 33003KT 22/15 A2996 RMK A01 T02240147  RH  062%=      5-min Rain = 0
KPD3 110821Z 33003KT 22/15 A2996 RMK A01 T02230147  RH  062%=      5-min Rain = 0
KPD3 110822Z 33003KT 22/15 A2996 RMK A01 T02230147  RH  062%=      5-min Rain = 0
KPD3 110823Z 34003KT 22/15 A2996 RMK A01 T02220147  RH  062%=      5-min Rain = 0
KPD3 110824Z 34003KT 22/15 A2996 RMK A01 T02220147  RH  063%=      5-min Rain = 0
KPD3 110825Z 34003KT 22/15 A2996 RMK A01 T02210147  RH  063%=      5-min Rain = 0
KPD3 110826Z 33003KT 22/15 A2996 RMK A01 T02210147  RH  063%=      5-min Rain = 0
KPD3 110827Z 33003KT 22/15 A2996 RMK A01 T02210147  RH  063%=      5-min Rain = 0
KPD3 110828Z 33003KT 22/15 A2996 RMK A01 T02210147  RH  063%=      5-min Rain = 0
KPD3 110829Z 33003KT 22/15 A2996 RMK A01 T02200147  RH  063%=      5-min Rain = 0
KPD3 110830Z 33003KT 22/15 A2996 RMK A01 T02210147  RH  063%=      5-min Rain = 0
KPD3 110831Z 33002KT 22/15 A2996 RMK A01 T02210147  RH  063%=      5-min Rain = 0
KPD3 110832Z 33002KT 22/15 A2996 RMK A01 T02200147  RH  063%=      5-min Rain = 0
KPD3 110833Z 34002KT 22/15 A2996 RMK A01 T02200147  RH  063%=      5-min Rain = 0
KPD3 110834Z 35002KT 22/15 A2996 RMK A01 T02200146  RH  063%=      5-min Rain = 0
KPD3 110835Z 01002KT 22/15 A2996 RMK A01 T02200147  RH  063%=      5-min Rain = 0
KPD3 110836Z 02002KT 22/15 A2996 RMK A01 T02210147  RH  063%=      5-min Rain = 0
KPD3 110837Z 02002KT 22/15 A2996 RMK A01 T02210147  RH  063%=      5-min Rain = 0
KPD3 110838Z 03002KT 22/15 A2996 RMK A01 T02210147  RH  063%=      5-min Rain = 0
KPD3 110839Z 03002KT 22/15 A2996 RMK A01 T02220147  RH  063%=      5-min Rain = 0
KPD3 110840Z 05002KT 22/15 A2996 RMK A01 T02210147  RH  063%=      5-min Rain = 0
KPD3 110841Z 07001KT 22/15 A2997 RMK A01 T02210147  RH  063%=      5-min Rain = 0
KPD3 110842Z 08001KT 22/15 A2997 RMK A01 T02220147  RH  063%=      5-min Rain = 0
KPD3 110843Z 08002KT 22/15 A2997 RMK A01 T02220147  RH  063%=      5-min Rain = 0
KPD3 110844Z 09002KT 22/15 A2997 RMK A01 T02220147  RH  063%=      5-min Rain = 0
KPD3 110845Z 09002KT 22/15 A2997 RMK A01 T02220147  RH  063%=      5-min Rain = 0
KPD3 110846Z 09002KT 22/15 A2997 RMK A01 T02220147  RH  062%=      5-min Rain = 0
KPD3 110847Z 10001KT 22/15 A2997 RMK A01 T02230147  RH  062%=      5-min Rain = 0
KPD3 110848Z 10001KT 22/15 A2997 RMK A01 T02230147  RH  062%=      5-min Rain = 0
KPD3 110849Z 10001KT 22/15 A2997 RMK A01 T02230147  RH  062%=      5-min Rain = 0
KPD3 110850Z 09001KT 22/15 A2997 RMK A01 T02220146  RH  062%=      5-min Rain = 0
KPD3 110851Z 09000KT 22/15 A2997 RMK A01 T02210146  RH  062%=      5-min Rain = 0
KPD3 110852Z 00000KT 22/15 A2997 RMK A01 T02200146  RH  063%=      5-min Rain = 0
KPD3 110853Z 00000KT 22/15 A2997 RMK A01 T02200146  RH  063%=      5-min Rain = 0
KPD3 110854Z 00000KT 22/15 A2997 RMK A01 T02200146  RH  063%=      5-min Rain = 0
KPD3 110855Z 00000KT 22/15 A2997 RMK A01 T02190146  RH  063%=      5-min Rain = 0
KPD3 110856Z 00000KT 22/15 A2997 RMK A01 T02180146  RH  063%=      5-min Rain = 0
KPD3 110857Z 00000KT 22/15 A2997 RMK A01 T02180146  RH  064%=      5-min Rain = 0
KPD3 110858Z 00000KT 22/15 A2997 RMK A01 T02170146  RH  064%=      5-min Rain = 0
KPD3 110859Z 00000KT 22/15 A2997 RMK A01 T02170146  RH  064%=      5-min Rain = 0
KPD3 110900Z 00000KT 22/15 A2997 RMK A01 T02170146  RH  064%=      5-min Rain = 0
KPD3 110901Z 00000KT 22/15 A2997 RMK A01 T02170146  RH  064%=      5-min Rain = 0
KPD3 110902Z 00000KT 22/15 A2996 RMK A01 T02170146  RH  064%=      5-min Rain = 0
KPD3 110903Z 00000KT 22/15 A2996 RMK A01 T02170146  RH  064%=      5-min Rain = 0
KPD3 110904Z 00000KT 22/15 A2996 RMK A01 T02170146  RH  064%=      5-min Rain = 0
KPD3 110905Z 00000KT 22/15 A2997 RMK A01 T02170146  RH  064%=      5-min Rain = 0
KPD3 110906Z 00000KT 22/15 A2997 RMK A01 T02170146  RH  064%=      5-min Rain = 0
KPD3 110907Z 27000KT 22/15 A2997 RMK A01 T02170146  RH  064%=      5-min Rain = 0
KPD3 110908Z 28000KT 22/15 A2997 RMK A01 T02170146  RH  064%=      5-min Rain = 0
KPD3 110909Z 00000KT 22/15 A2997 RMK A01 T02170146  RH  064%=      5-min Rain = 0
KPD3 110910Z 30000KT 22/15 A2997 RMK A01 T02170146  RH  064%=      5-min Rain = 0
KPD3 110911Z 31001KT 22/15 A2997 RMK A01 T02170146  RH  064%=      5-min Rain = 0
KPD3 110912Z 30002KT 22/15 A2997 RMK A01 T02170147  RH  064%=      5-min Rain = 0
KPD3 110913Z 30001KT 22/15 A2997 RMK A01 T02170147  RH  064%=      5-min Rain = 0
KPD3 110914Z 31001KT 22/15 A2997 RMK A01 T02180147  RH  064%=      5-min Rain = 0
KPD3 110915Z 32001KT 22/15 A2997 RMK A01 T02180147  RH  064%=      5-min Rain = 0
KPD3 110916Z 31001KT 22/15 A2997 RMK A01 T02180147  RH  064%=      5-min Rain = 0
KPD3 110917Z 31000KT 22/15 A2997 RMK A01 T02190148  RH  064%=      5-min Rain = 0
KPD3 110918Z 00000KT 22/15 A2997 RMK A01 T02190147  RH  064%=      5-min Rain = 0
KPD3 110919Z 00000KT 22/15 A2997 RMK A01 T02190148  RH  064%=      5-min Rain = 0
KPD3 110920Z 00000KT 22/15 A2997 RMK A01 T02200148  RH  064%=      5-min Rain = 0
KPD3 110921Z 00000KT 22/15 A2997 RMK A01 T02200147  RH  063%=      5-min Rain = 0
KPD3 110922Z 09000KT 22/15 A2997 RMK A01 T02210147  RH  063%=      5-min Rain = 0
KPD3 110923Z 09000KT 22/15 A2997 RMK A01 T02210148  RH  063%=      5-min Rain = 0
KPD3 110924Z 00000KT 22/15 A2997 RMK A01 T02220148  RH  063%=      5-min Rain = 0
KPD3 110925Z 14000KT 22/15 A2996 RMK A01 T02220148  RH  063%=      5-min Rain = 0
KPD3 110926Z 00000KT 22/15 A2997 RMK A01 T02220148  RH  063%=      5-min Rain = 0
KPD3 110927Z 00000KT 22/15 A2997 RMK A01 T02220148  RH  063%=      5-min Rain = 0
KPD3 110928Z 00000KT 22/15 A2997 RMK A01 T02240148  RH  062%=      5-min Rain = 0
KPD3 110929Z 11000KT 23/15 A2997 RMK A01 T02250148  RH  062%=      5-min Rain = 0
KPD3 110930Z 10000KT 23/15 A2997 RMK A01 T02250149  RH  062%=      5-min Rain = 0
KPD3 110931Z 09000KT 23/15 A2997 RMK A01 T02250149  RH  062%=      5-min Rain = 0
KPD3 110932Z 00000KT 22/15 A2997 RMK A01 T02230149  RH  063%=      5-min Rain = 0
KPD3 110933Z 00000KT 22/15 A2997 RMK A01 T02220148  RH  063%=      5-min Rain = 0
KPD3 110934Z 00000KT 22/15 A2997 RMK A01 T02210148  RH  063%=      5-min Rain = 0
KPD3 110935Z 00000KT 22/15 A2997 RMK A01 T02200147  RH  063%=      5-min Rain = 0
KPD3 110936Z 00000KT 22/15 A2997 RMK A01 T02190147  RH  063%=      5-min Rain = 0
KPD3 110937Z 00000KT 22/15 A2997 RMK A01 T02180147  RH  064%=      5-min Rain = 0
KPD3 110938Z 00000KT 22/15 A2997 RMK A01 T02170147  RH  064%=      5-min Rain = 0
KPD3 110939Z 00000KT 22/15 A2997 RMK A01 T02160147  RH  065%=      5-min Rain = 0
KPD3 110940Z 34001KT 22/15 A2997 RMK A01 T02150147  RH  065%=      5-min Rain = 0
KPD3 110941Z 33001KT 22/15 A2997 RMK A01 T02150148  RH  066%=      5-min Rain = 0
KPD3 110942Z 33002KT 22/15 A2997 RMK A01 T02150148  RH  066%=      5-min Rain = 0
KPD3 110943Z 33002KT 22/15 A2997 RMK A01 T02150149  RH  066%=      5-min Rain = 0
KPD3 110944Z 32002KT 22/15 A2997 RMK A01 T02160149  RH  066%=      5-min Rain = 0
KPD3 110945Z 32003KT 22/15 A2997 RMK A01 T02170150  RH  065%=      5-min Rain = 0
KPD3 110946Z 32004KT 22/15 A2997 RMK A01 T02170150  RH  065%=      5-min Rain = 0
KPD3 110947Z 32003KT 22/15 A2997 RMK A01 T02170150  RH  066%=      5-min Rain = 0
KPD3 110948Z 33002KT 22/15 A2997 RMK A01 T02170150  RH  066%=      5-min Rain = 0
KPD3 110949Z 33002KT 22/15 A2997 RMK A01 T02170151  RH  066%=      5-min Rain = 0
KPD3 110950Z 34001KT 22/15 A2997 RMK A01 T02170151  RH  066%=      5-min Rain = 0
KPD3 110951Z 35000KT 22/15 A2997 RMK A01 T02170151  RH  066%=      5-min Rain = 0
KPD3 110952Z 00000KT 22/15 A2997 RMK A01 T02170151  RH  066%=      5-min Rain = 0
KPD3 110953Z 00000KT 22/15 A2997 RMK A01 T02170150  RH  066%=      5-min Rain = 0
KPD3 110954Z 00000KT 22/15 A2997 RMK A01 T02170150  RH  065%=      5-min Rain = 0
KPD3 110955Z 00000KT 22/15 A2997 RMK A01 T02170150  RH  065%=      5-min Rain = 0
KPD3 110956Z 00000KT 22/15 A2997 RMK A01 T02170150  RH  065%=      5-min Rain = 0
KPD3 110957Z 00000KT 22/15 A2997 RMK A01 T02180150  RH  065%=      5-min Rain = 0
KPD3 110958Z 00000KT 22/15 A2997 RMK A01 T02180150  RH  065%=      5-min Rain = 0
KPD3 110959Z 00000KT 22/15 A2997 RMK A01 T02180149  RH  065%=      5-min Rain = 0
KPD3 111000Z 00000KT 22/15 A2997 RMK A01 T02180150  RH  065%=      5-min Rain = 0
KPD3 111001Z 00000KT 22/15 A2997 RMK A01 T02170150  RH  066%=      5-min Rain = 0
KPD3 111002Z 00000KT 22/15 A2997 RMK A01 T02160150  RH  066%=      5-min Rain = 0
KPD3 111003Z 00000KT 22/15 A2997 RMK A01 T02160150  RH  066%=      5-min Rain = 0
KPD3 111004Z 00000KT 22/15 A2997 RMK A01 T02150150  RH  066%=      5-min Rain = 0
KPD3 111005Z 00000KT 22/15 A2997 RMK A01 T02170150  RH  066%=      5-min Rain = 0
KPD3 111006Z 00000KT 22/15 A2997 RMK A01 T02190151  RH  065%=      5-min Rain = 0
KPD3 111007Z 00000KT 22/15 A2997 RMK A01 T02190150  RH  065%=      5-min Rain = 0
KPD3 111008Z 35000KT 22/15 A2997 RMK A01 T02210150  RH  064%=      5-min Rain = 0
KPD3 111009Z 00000KT 22/15 A2997 RMK A01 T02230150  RH  064%=      5-min Rain = 0
KPD3 111010Z 00000KT 22/15 A2997 RMK A01 T02230150  RH  063%=      5-min Rain = 0
KPD3 111011Z 14000KT 22/15 A2997 RMK A01 T02220149  RH  063%=      5-min Rain = 0
KPD3 111012Z 14001KT 22/15 A2997 RMK A01 T02210148  RH  063%=      5-min Rain = 0
KPD3 111013Z 14001KT 22/15 A2997 RMK A01 T02200148  RH  063%=      5-min Rain = 0
KPD3 111014Z 14002KT 22/15 A2997 RMK A01 T02200148  RH  064%=      5-min Rain = 0
KPD3 111015Z 13001KT 22/15 A2997 RMK A01 T02190148  RH  064%=      5-min Rain = 0
KPD3 111016Z 14001KT 22/15 A2997 RMK A01 T02180148  RH  064%=      5-min Rain = 0
KPD3 111017Z 14002KT 22/15 A2997 RMK A01 T02190148  RH  064%=      5-min Rain = 0
KPD3 111018Z 15002KT 22/15 A2997 RMK A01 T02190148  RH  064%=      5-min Rain = 0
KPD3 111019Z 18002KT 22/15 A2997 RMK A01 T02190147  RH  064%=      5-min Rain = 0
KPD3 111020Z 18002KT 22/15 A2997 RMK A01 T02210149  RH  064%=      5-min Rain = 0
KPD3 111021Z 17001KT 22/15 A2997 RMK A01 T02220148  RH  063%=      5-min Rain = 0
KPD3 111022Z 16001KT 22/15 A2997 RMK A01 T02210148  RH  063%=      5-min Rain = 0
KPD3 111023Z 17000KT 22/15 A2997 RMK A01 T02200147  RH  063%=      5-min Rain = 0
KPD3 111024Z 00000KT 22/15 A2997 RMK A01 T02180148  RH  064%=      5-min Rain = 0
KPD3 111025Z 00000KT 22/15 A2997 RMK A01 T02180148  RH  065%=      5-min Rain = 0
KPD3 111026Z 00000KT 22/15 A2997 RMK A01 T02170148  RH  065%=      5-min Rain = 0
KPD3 111027Z 00000KT 22/15 A2997 RMK A01 T02170148  RH  065%=      5-min Rain = 0
KPD3 111028Z 00000KT 22/15 A2997 RMK A01 T02170149  RH  065%=      5-min Rain = 0
KPD3 111029Z 00000KT 22/15 A2997 RMK A01 T02170149  RH  065%=      5-min Rain = 0
KPD3 111030Z 18000KT 22/15 A2997 RMK A01 T02190149  RH  065%=      5-min Rain = 0
KPD3 111031Z 19000KT 22/15 A2998 RMK A01 T02210149  RH  064%=      5-min Rain = 0
KPD3 111032Z 00000KT 22/15 A2997 RMK A01 T02210149  RH  063%=      5-min Rain = 0
KPD3 111033Z 23000KT 22/15 A2997 RMK A01 T02210149  RH  064%=      5-min Rain = 0
KPD3 111034Z 27000KT 22/15 A2997 RMK A01 T02200149  RH  064%=      5-min Rain = 0
KPD3 111035Z 00000KT 22/15 A2997 RMK A01 T02190149  RH  064%=      5-min Rain = 0
KPD3 111036Z 00000KT 22/15 A2997 RMK A01 T02180149  RH  065%=      5-min Rain = 0
KPD3 111037Z 00000KT 22/15 A2997 RMK A01 T02170149  RH  065%=      5-min Rain = 0
KPD3 111038Z 00000KT 22/15 A2997 RMK A01 T02170148  RH  065%=      5-min Rain = 0
KPD3 111039Z 17001KT 22/15 A2997 RMK A01 T02160148  RH  065%=      5-min Rain = 0
KPD3 111040Z 16001KT 22/15 A2997 RMK A01 T02160148  RH  065%=      5-min Rain = 0
KPD3 111041Z 15001KT 22/15 A2997 RMK A01 T02160148  RH  065%=      5-min Rain = 0
KPD3 111042Z 16001KT 22/15 A2997 RMK A01 T02160148  RH  065%=      5-min Rain = 0
KPD3 111043Z 19000KT 22/15 A2998 RMK A01 T02160148  RH  065%=      5-min Rain = 0
KPD3 111044Z 26001KT 22/15 A2998 RMK A01 T02160148  RH  065%=      5-min Rain = 0
KPD3 111045Z 28003KT 22/15 A2998 RMK A01 T02150148  RH  066%=      5-min Rain = 0
KPD3 111046Z 28003KT 22/15 A2998 RMK A01 T02150148  RH  066%=      5-min Rain = 0
KPD3 111047Z 28003KT 21/15 A2998 RMK A01 T02140148  RH  066%=      5-min Rain = 0
KPD3 111048Z 28002KT 21/15 A2998 RMK A01 T02140148  RH  066%=      5-min Rain = 0
KPD3 111049Z 27002KT 22/15 A2998 RMK A01 T02150148  RH  066%=      5-min Rain = 0
KPD3 111050Z 27001KT 22/15 A2998 RMK A01 T02150148  RH  066%=      5-min Rain = 0
KPD3 111051Z 26001KT 22/15 A2998 RMK A01 T02160149  RH  066%=      5-min Rain = 0
KPD3 111052Z 26001KT 22/15 A2998 RMK A01 T02150148  RH  066%=      5-min Rain = 0
KPD3 111053Z 25000KT 22/15 A2998 RMK A01 T02150148  RH  066%=      5-min Rain = 0
KPD3 111054Z 00000KT 22/15 A2998 RMK A01 T02150148  RH  066%=      5-min Rain = 0
KPD3 111055Z 00000KT 22/15 A2998 RMK A01 T02160149  RH  066%=      5-min Rain = 0
KPD3 111056Z 25000KT 22/15 A2998 RMK A01 T02170149  RH  065%=      5-min Rain = 0
KPD3 111057Z 25000KT 22/15 A2998 RMK A01 T02180150  RH  065%=      5-min Rain = 0
KPD3 111058Z 18001KT 22/15 A2998 RMK A01 T02180149  RH  065%=      5-min Rain = 0
KPD3 111059Z 17001KT 22/15 A2998 RMK A01 T02190149  RH  065%=      5-min Rain = 0
KPD3 111100Z 17001KT 22/15 A2998 RMK A01 T02190150  RH  065%=      5-min Rain = 0
KPD3 111101Z 18001KT 22/15 A2998 RMK A01 T02190149  RH  065%=      5-min Rain = 0
KPD3 111102Z 24001KT 22/15 A2998 RMK A01 T02190149  RH  065%=      5-min Rain = 0
KPD3 111103Z 24001KT 22/15 A2998 RMK A01 T02190149  RH  065%=      5-min Rain = 0
KPD3 111104Z 25002KT 22/15 A2998 RMK A01 T02190149  RH  064%=      5-min Rain = 0
KPD3 111105Z 28003KT 22/15 A2998 RMK A01 T02180149  RH  065%=      5-min Rain = 0
KPD3 111106Z 28003KT 22/15 A2998 RMK A01 T02170149  RH  065%=      5-min Rain = 0
KPD3 111107Z 29002KT 22/15 A2998 RMK A01 T02160149  RH  065%=      5-min Rain = 0
KPD3 111108Z 28003KT 22/15 A2998 RMK A01 T02160149  RH  066%=      5-min Rain = 0
KPD3 111109Z 27002KT 22/15 A2998 RMK A01 T02150149  RH  066%=      5-min Rain = 0
KPD3 111110Z 26003KT 22/15 A2998 RMK A01 T02150149  RH  066%=      5-min Rain = 0
KPD3 111111Z 26002KT 21/15 A2998 RMK A01 T02140149  RH  066%=      5-min Rain = 0
KPD3 111112Z 25002KT 21/15 A2998 RMK A01 T02140149  RH  066%=      5-min Rain = 0
KPD3 111113Z 24002KT 21/15 A2998 RMK A01 T02140149  RH  066%=      5-min Rain = 0
KPD3 111114Z 24002KT 21/15 A2998 RMK A01 T02140149  RH  067%=      5-min Rain = 0
KPD3 111115Z 27002KT 21/15 A2998 RMK A01 T02130149  RH  067%=      5-min Rain = 0
KPD3 111116Z 27002KT 21/15 A2998 RMK A01 T02130149  RH  067%=      5-min Rain = 0
KPD3 111117Z 27002KT 21/15 A2998 RMK A01 T02130149  RH  067%=      5-min Rain = 0
KPD3 111118Z 27002KT 21/15 A2998 RMK A01 T02130149  RH  067%=      5-min Rain = 0
KPD3 111119Z 31000KT 21/15 A2998 RMK A01 T02120149  RH  067%=      5-min Rain = 0
KPD3 111120Z 28000KT 21/15 A2998 RMK A01 T02120149  RH  067%=      5-min Rain = 0
KPD3 111121Z 23002KT 21/15 A2998 RMK A01 T02120149  RH  067%=      5-min Rain = 0
KPD3 111122Z 16002KT 21/15 A2998 RMK A01 T02120148  RH  067%=      5-min Rain = 0
KPD3 111123Z 11000KT 21/15 A2998 RMK A01 T02120148  RH  067%=      5-min Rain = 0
KPD3 111124Z 18000KT 21/15 A2998 RMK A01 T02130149  RH  067%=      5-min Rain = 0
KPD3 111125Z 23001KT 21/15 A2998 RMK A01 T02130149  RH  067%=      5-min Rain = 0
KPD3 111126Z 16002KT 22/15 A2998 RMK A01 T02160150  RH  066%=      5-min Rain = 0
KPD3 111127Z 15000KT 22/15 A2998 RMK A01 T02200150  RH  065%=      5-min Rain = 0
KPD3 111128Z 14000KT 22/15 A2999 RMK A01 T02200150  RH  064%=      5-min Rain = 0
KPD3 111129Z 14002KT 22/15 A2998 RMK A01 T02210151  RH  064%=      5-min Rain = 0
KPD3 111130Z 14001KT 22/15 A2999 RMK A01 T02210151  RH  065%=      5-min Rain = 0
KPD3 111131Z 14002KT 22/15 A2999 RMK A01 T02210151  RH  065%=      5-min Rain = 0
KPD3 111132Z 13002KT 22/15 A2998 RMK A01 T02190151  RH  065%=      5-min Rain = 0
KPD3 111133Z 13002KT 22/15 A2998 RMK A01 T02180151  RH  066%=      5-min Rain = 0
KPD3 111134Z 13002KT 22/15 A2999 RMK A01 T02180152  RH  066%=      5-min Rain = 0
KPD3 111135Z 14003KT 22/15 A2998 RMK A01 T02170151  RH  066%=      5-min Rain = 0
KPD3 111136Z 15003KT 22/15 A2999 RMK A01 T02180151  RH  066%=      5-min Rain = 0
KPD3 111137Z 15003KT 22/15 A2999 RMK A01 T02180150  RH  065%=      5-min Rain = 0
KPD3 111138Z 15003KT 22/15 A2999 RMK A01 T02180151  RH  066%=      5-min Rain = 0
KPD3 111139Z 15004KT 22/15 A2999 RMK A01 T02190151  RH  065%=      5-min Rain = 0
KPD3 111140Z 17003KT 22/15 A2999 RMK A01 T02200152  RH  065%=      5-min Rain = 0
KPD3 111141Z 14002KT 22/15 A2999 RMK A01 T02200152  RH  065%=      5-min Rain = 0
KPD3 111142Z 14002KT 22/15 A2999 RMK A01 T02210153  RH  065%=      5-min Rain = 0
KPD3 111143Z 12003KT 22/15 A2999 RMK A01 T02210152  RH  065%=      5-min Rain = 0
KPD3 111144Z 10002KT 22/15 A2999 RMK A01 T02230152  RH  064%=      5-min Rain = 0
KPD3 111145Z 10002KT 22/15 A2999 RMK A01 T02240152  RH  064%=      5-min Rain = 0
KPD3 111146Z 08003KT 23/15 A2999 RMK A01 T02260153  RH  063%=      5-min Rain = 0
KPD3 111147Z 07003KT 23/15 A2999 RMK A01 T02260153  RH  063%=      5-min Rain = 0
KPD3 111148Z 07004KT 23/15 A2999 RMK A01 T02270154  RH  063%=      5-min Rain = 0
KPD3 111149Z 07004KT 23/15 A2999 RMK A01 T02260153  RH  064%=      5-min Rain = 0
KPD3 111150Z 08004KT 23/15 A2999 RMK A01 T02260154  RH  064%=      5-min Rain = 0
KPD3 111151Z 09004KT 23/15 A2999 RMK A01 T02250153  RH  064%=      5-min Rain = 0
KPD3 111152Z 09004KT 23/15 A2999 RMK A01 T02250153  RH  064%=      5-min Rain = 0
KPD3 111153Z 08004KT 22/15 A2999 RMK A01 T02240153  RH  064%=      5-min Rain = 0
KPD3 111154Z 09004KT 22/15 A2999 RMK A01 T02230153  RH  064%=      5-min Rain = 0
KPD3 111155Z 10003KT 22/15 A2999 RMK A01 T02230153  RH  065%=      5-min Rain = 0
KPD3 111156Z 12003KT 22/15 A2999 RMK A01 T02220153  RH  065%=      5-min Rain = 0
KPD3 111157Z 12004KT 22/15 A2999 RMK A01 T02220153  RH  065%=      5-min Rain = 0
KPD3 111158Z 13004KT 22/15 A2999 RMK A01 T02230153  RH  064%=      5-min Rain = 0
KPD3 111159Z 13004KT 23/15 A2999 RMK A01 T02260153  RH  063%=      5-min Rain = 0
KPD3 111200Z 12004KT 23/15 A2999 RMK A01 T02270153  RH  063%=      5-min Rain = 0
KPD3 111201Z 12003KT 23/15 A2999 RMK A01 T02270152  RH  063%=      5-min Rain = 0
KPD3 111202Z 11004KT 23/15 A2999 RMK A01 T02270152  RH  063%=      5-min Rain = 0
KPD3 111203Z 12004KT 23/15 A2999 RMK A01 T02260152  RH  063%=      5-min Rain = 0
KPD3 111204Z 13004KT 23/15 A2999 RMK A01 T02250152  RH  063%=      5-min Rain = 0
KPD3 111205Z 13003KT 23/15 A2999 RMK A01 T02250152  RH  064%=      5-min Rain = 0
KPD3 111206Z 13003KT 23/15 A2999 RMK A01 T02250152  RH  063%=      5-min Rain = 0
KPD3 111207Z 13003KT 23/15 A2999 RMK A01 T02260152  RH  063%=      5-min Rain = 0
KPD3 111208Z 13004KT 23/15 A2999 RMK A01 T02280152  RH  062%=      5-min Rain = 0
KPD3 111209Z 13004KT 23/15 A2999 RMK A01 T02280153  RH  062%=      5-min Rain = 0
KPD3 111210Z 13004KT 23/15 A2999 RMK A01 T02290153  RH  062%=      5-min Rain = 0
KPD3 111211Z 13003KT 23/15 A30 RMK A01 T02290153  RH  062%=      5-min Rain = 0
KPD3 111212Z 12003KT 23/15 A30 RMK A01 T02290154  RH  062%=      5-min Rain = 0
KPD3 111213Z 12004KT 23/15 A30 RMK A01 T02300154  RH  062%=      5-min Rain = 0
KPD3 111214Z 12003KT 23/15 A30 RMK A01 T02310154  RH  062%=      5-min Rain = 0
KPD3 111215Z 12003KT 23/15 A30 RMK A01 T02310154  RH  062%=      5-min Rain = 0
KPD3 111216Z 12003KT 23/15 A30 RMK A01 T02320154  RH  062%=      5-min Rain = 0
KPD3 111217Z 11003KT 23/15 A30 RMK A01 T02330154  RH  061%=      5-min Rain = 0
KPD3 111218Z 11003KT 23/15 A30 RMK A01 T02330154  RH  061%=      5-min Rain = 0
KPD3 111219Z 11003KT 23/16 A30 RMK A01 T02340155  RH  061%=      5-min Rain = 0
KPD3 111220Z 11002KT 23/16 A30 RMK A01 T02330155  RH  061%=      5-min Rain = 0
KPD3 111221Z 12003KT 23/16 A30 RMK A01 T02340155  RH  061%=      5-min Rain = 0
KPD3 111222Z 13003KT 23/16 A30 RMK A01 T02340155  RH  061%=      5-min Rain = 0
KPD3 111223Z 12003KT 23/16 A30 RMK A01 T02340155  RH  061%=      5-min Rain = 0
KPD3 111224Z 11003KT 23/16 A30 RMK A01 T02340155  RH  061%=      5-min Rain = 0
KPD3 111225Z 09003KT 23/16 A30 RMK A01 T02340155  RH  061%=      5-min Rain = 0
KPD3 111226Z 08004KT 24/16 A30 RMK A01 T02350156  RH  061%=      5-min Rain = 0
KPD3 111227Z 09004KT 24/16 A30 RMK A01 T02350157  RH  061%=      5-min Rain = 0
KPD3 111228Z 09003KT 24/16 A30 RMK A01 T02350157  RH  061%=      5-min Rain = 0
KPD3 111229Z 10004KT 24/16 A30 RMK A01 T02350157  RH  061%=      5-min Rain = 0
KPD3 111230Z 09003KT 24/16 A30 RMK A01 T02350157  RH  061%=      5-min Rain = 0
KPD3 111231Z 11003KT 24/16 A30 RMK A01 T02360156  RH  061%=      5-min Rain = 0
KPD3 111232Z 12002KT 24/16 A30 RMK A01 T02360156  RH  061%=      5-min Rain = 0
KPD3 111233Z 12002KT 24/16 A30 RMK A01 T02360156  RH  061%=      5-min Rain = 0
KPD3 111234Z 12003KT 24/16 A30 RMK A01 T02360156  RH  061%=      5-min Rain = 0
KPD3 111235Z 10003KT 24/16 A30 RMK A01 T02370157  RH  061%=      5-min Rain = 0
KPD3 111236Z 10003KT 24/16 A30 RMK A01 T02380157  RH  060%=      5-min Rain = 0
KPD3 111237Z 10003KT 24/16 A30 RMK A01 T02390158  RH  060%=      5-min Rain = 0
KPD3 111238Z 10003KT 24/16 A30 RMK A01 T02410159  RH  060%=      5-min Rain = 0
KPD3 111239Z 09003KT 24/16 A30 RMK A01 T02420159  RH  060%=      5-min Rain = 0
KPD3 111240Z 10003KT 24/16 A30 RMK A01 T02430159  RH  059%=      5-min Rain = 0
KPD3 111241Z 11003KT 24/16 A30 RMK A01 T02440159  RH  059%=      5-min Rain = 0
KPD3 111242Z 11003KT 25/16 A30 RMK A01 T02450160  RH  059%=      5-min Rain = 0
KPD3 111243Z 11003KT 25/16 A30 RMK A01 T02460159  RH  058%=      5-min Rain = 0
KPD3 111244Z 12003KT 25/16 A30 RMK A01 T02470160  RH  058%=      5-min Rain = 0
KPD3 111245Z 12003KT 25/16 A30 RMK A01 T02490160  RH  058%=      5-min Rain = 0
KPD3 111246Z 11003KT 25/16 A30 RMK A01 T02500161  RH  058%=      5-min Rain = 0
KPD3 111247Z 10002KT 25/16 A30 RMK A01 T02510160  RH  057%=      5-min Rain = 0
KPD3 111248Z 07001KT 25/16 A30 RMK A01 T02530161  RH  057%=      5-min Rain = 0
KPD3 111249Z 08000KT 25/16 A30 RMK A01 T02540163  RH  057%=      5-min Rain = 0
KPD3 111250Z 09000KT 25/16 A30 RMK A01 T02540164  RH  057%=      5-min Rain = 0
KPD3 111251Z 08001KT 26/17 A30 RMK A01 T02550165  RH  058%=      5-min Rain = 0
KPD3 111252Z 09002KT 26/16 A30 RMK A01 T02560164  RH  057%=      5-min Rain = 0
KPD3 111253Z 09002KT 26/16 A30 RMK A01 T02570163  RH  056%=      5-min Rain = 0
KPD3 111254Z 10002KT 26/16 A30 RMK A01 T02580164  RH  056%=      5-min Rain = 0
KPD3 111255Z 10002KT 26/16 A30 RMK A01 T02600162  RH  055%=      5-min Rain = 0
KPD3 111256Z 09001KT 26/16 A30 RMK A01 T02610162  RH  054%=      5-min Rain = 0
KPD3 111257Z 10001KT 26/16 A30 RMK A01 T02620161  RH  054%=      5-min Rain = 0
KPD3 111258Z 11001KT 26/16 A30 RMK A01 T02640161  RH  053%=      5-min Rain = 0
KPD3 111259Z 12001KT 27/16 A30 RMK A01 T02650162  RH  053%=      5-min Rain = 0
KPD3 111300Z 12002KT 27/16 A30 RMK A01 T02660161  RH  053%=      5-min Rain = 0
KPD3 111301Z 13002KT 27/16 A30 RMK A01 T02670161  RH  052%=      5-min Rain = 0
KPD3 111302Z 14002KT 27/16 A30 RMK A01 T02670160  RH  052%=      5-min Rain = 0
KPD3 111303Z 13002KT 27/16 A30 RMK A01 T02670161  RH  052%=      5-min Rain = 0
KPD3 111304Z 13002KT 27/16 A30 RMK A01 T02680162  RH  052%=      5-min Rain = 0
KPD3 111305Z 13002KT 27/16 A30 RMK A01 T02690162  RH  052%=      5-min Rain = 0
KPD3 111306Z 13002KT 27/16 A30 RMK A01 T02700162  RH  052%=      5-min Rain = 0
KPD3 111307Z 13002KT 27/16 A30 RMK A01 T02700162  RH  051%=      5-min Rain = 0
KPD3 111308Z 12002KT 27/16 A30 RMK A01 T02720162  RH  051%=      5-min Rain = 0
KPD3 111309Z 13002KT 27/16 A30 RMK A01 T02730163  RH  051%=      5-min Rain = 0
KPD3 111310Z 13002KT 27/16 A30 RMK A01 T02730163  RH  051%=      5-min Rain = 0
KPD3 111311Z 12002KT 27/16 A30 RMK A01 T02740163  RH  051%=      5-min Rain = 0
KPD3 111312Z 11002KT 28/16 A30 RMK A01 T02750163  RH  051%=      5-min Rain = 0
KPD3 111313Z 11002KT 28/16 A3001 RMK A01 T02760164  RH  050%=      5-min Rain = 0
KPD3 111314Z 12002KT 28/16 A3001 RMK A01 T02770163  RH  050%=      5-min Rain = 0
KPD3 111315Z 12002KT 28/16 A3001 RMK A01 T02780163  RH  050%=      5-min Rain = 0
KPD3 111316Z 11002KT 28/16 A3001 RMK A01 T02780163  RH  049%=      5-min Rain = 0
KPD3 111317Z 11002KT 28/16 A3001 RMK A01 T02800164  RH  049%=      5-min Rain = 0
KPD3 111318Z 10001KT 28/16 A3001 RMK A01 T02810163  RH  049%=      5-min Rain = 0
KPD3 111319Z 11001KT 28/16 A3001 RMK A01 T02820163  RH  048%=      5-min Rain = 0
KPD3 111320Z 11001KT 28/16 A3001 RMK A01 T02830163  RH  048%=      5-min Rain = 0
KPD3 111321Z 12001KT 28/16 A3001 RMK A01 T02840163  RH  048%=      5-min Rain = 0
KPD3 111322Z 14001KT 29/16 A3001 RMK A01 T02850164  RH  048%=      5-min Rain = 0
KPD3 111323Z 14001KT 29/16 A3001 RMK A01 T02880163  RH  047%=      5-min Rain = 0
KPD3 111324Z 13001KT 29/16 A3001 RMK A01 T02890163  RH  046%=      5-min Rain = 0
KPD3 111325Z 11002KT 29/16 A3001 RMK A01 T02910163  RH  046%=      5-min Rain = 0
KPD3 111326Z 12002KT 29/16 A3001 RMK A01 T02920163  RH  046%=      5-min Rain = 0
KPD3 111327Z 11001KT 29/16 A3001 RMK A01 T02930164  RH  046%=      5-min Rain = 0
KPD3 111328Z 14002KT 29/16 A3001 RMK A01 T02940163  RH  045%=      5-min Rain = 0
KPD3 111329Z 15002KT 29/16 A3001 RMK A01 T02940162  RH  045%=      5-min Rain = 0
KPD3 111330Z 14001KT 30/16 A3001 RMK A01 T02960164  RH  045%=      5-min Rain = 0
KPD3 111331Z 14001KT 30/16 A3001 RMK A01 T02970163  RH  044%=      5-min Rain = 0
KPD3 111332Z 16002KT 30/16 A3001 RMK A01 T02990164  RH  044%=      5-min Rain = 0
KPD3 111333Z 19001KT 30/16 A3001 RMK A01 T03010162  RH  043%=      5-min Rain = 0
KPD3 111334Z 13001KT 30/16 A3001 RMK A01 T03030163  RH  043%=      5-min Rain = 0
KPD3 111335Z 16002KT 31/16 A3001 RMK A01 T03050161  RH  042%=      5-min Rain = 0
KPD3 111336Z 21001KT 31/16 A3001 RMK A01 T03050160  RH  042%=      5-min Rain = 0
KPD3 111337Z 16002KT 31/16 A3001 RMK A01 T03060162  RH  042%=      5-min Rain = 0
KPD3 111338Z 16001KT 31/16 A3001 RMK A01 T03070159  RH  041%=      5-min Rain = 0
KPD3 111339Z 15001KT 31/16 A3001 RMK A01 T03080160  RH  041%=      5-min Rain = 0
KPD3 111340Z 16002KT 31/16 A3001 RMK A01 T03090161  RH  041%=      5-min Rain = 0
KPD3 111341Z 18003KT 31/16 A3001 RMK A01 T03110160  RH  040%=      5-min Rain = 0
KPD3 111342Z 19002KT 31/16 A3001 RMK A01 T03100160  RH  040%=      5-min Rain = 0
KPD3 111343Z 18002KT 31/16 A3001 RMK A01 T03090160  RH  041%=      5-min Rain = 0
KPD3 111344Z 18002KT 31/16 A3001 RMK A01 T03090160  RH  041%=      5-min Rain = 0
KPD3 111345Z 16002KT 31/16 A3001 RMK A01 T03090160  RH  041%=      5-min Rain = 0
KPD3 111346Z 15002KT 31/16 A3001 RMK A01 T03090160  RH  041%=      5-min Rain = 0
KPD3 111347Z 15002KT 31/16 A3001 RMK A01 T03110160  RH  040%=      5-min Rain = 0
KPD3 111348Z 15002KT 31/16 A3001 RMK A01 T03120161  RH  040%=      5-min Rain = 0
KPD3 111349Z 15002KT 31/16 A3001 RMK A01 T03130161  RH  040%=      5-min Rain = 0
KPD3 111350Z 14002KT 31/16 A3001 RMK A01 T03140160  RH  040%=      5-min Rain = 0
KPD3 111351Z 15001KT 32/16 A3001 RMK A01 T03150160  RH  039%=      5-min Rain = 0
KPD3 111352Z 13001KT 32/16 A3001 RMK A01 T03150160  RH  039%=      5-min Rain = 0
KPD3 111353Z 15002KT 32/16 A3001 RMK A01 T03150160  RH  039%=      5-min Rain = 0
KPD3 111354Z 20002KT 32/16 A3001 RMK A01 T03160160  RH  039%=      5-min Rain = 0
KPD3 111355Z 20002KT 32/16 A3001 RMK A01 T03160160  RH  039%=      5-min Rain = 0
KPD3 111356Z 19002KT 32/16 A3001 RMK A01 T03160160  RH  039%=      5-min Rain = 0
KPD3 111357Z 17003KT 32/16 A3001 RMK A01 T03160161  RH  039%=      5-min Rain = 0
KPD3 111358Z 18003KT 32/16 A3001 RMK A01 T03160161  RH  039%=      5-min Rain = 0
KPD3 111359Z 17003KT 32/16 A3001 RMK A01 T03180162  RH  039%=      5-min Rain = 0
KPD3 111400Z 19003KT 32/16 A3001 RMK A01 T03190161  RH  039%=      5-min Rain = 0
KPD3 111401Z 20003KT 32/16 A3001 RMK A01 T03190161  RH  039%=      5-min Rain = 0
KPD3 111402Z 22002KT 32/16 A3001 RMK A01 T03190161  RH  039%=      5-min Rain = 0
KPD3 111403Z 23002KT 32/16 A3001 RMK A01 T03190161  RH  039%=      5-min Rain = 0
KPD3 111404Z 24006KT 32/16 A3001 RMK A01 T03200161  RH  038%=      5-min Rain = 0
KPD3 111405Z 24008KT 32/16 A3001 RMK A01 T03220158  RH  037%=      5-min Rain = 0
KPD3 111406Z 24010KT 32/16 A3001 RMK A01 T03240157  RH  037%=      5-min Rain = 0
KPD3 111407Z 23009KT 33/16 A3001 RMK A01 T03250157  RH  037%=      5-min Rain = 0
KPD3 111408Z 21008KT 33/16 A3001 RMK A01 T03250158  RH  037%=      5-min Rain = 0
KPD3 111409Z 21006KT 33/16 A3001 RMK A01 T03260155  RH  036%=      5-min Rain = 0
KPD3 111410Z 22008KT 33/16 A3001 RMK A01 T03260157  RH  036%=      5-min Rain = 0
KPD3 111411Z 22010KT 33/16 A3001 RMK A01 T03280157  RH  036%=      5-min Rain = 0
KPD3 111412Z 21009KT 33/16 A3001 RMK A01 T03280155  RH  035%=      5-min Rain = 0
KPD3 111413Z 21010KT 33/16 A3001 RMK A01 T03280156  RH  036%=      5-min Rain = 0
KPD3 111414Z 22009KT 33/16 A3001 RMK A01 T03280155  RH  035%=      5-min Rain = 0
KPD3 111415Z 21008KT 33/16 A3001 RMK A01 T03300157  RH  035%=      5-min Rain = 0
KPD3 111416Z 22012KT 33/16 A3001 RMK A01 T03320156  RH  035%=      5-min Rain = 0
KPD3 111417Z 23011KT 33/16 A3001 RMK A01 T03320155  RH  035%=      5-min Rain = 0
KPD3 111418Z 23011KT 33/16 A3001 RMK A01 T03300156  RH  035%=      5-min Rain = 0
KPD3 111419Z 21010KT 33/16 A3001 RMK A01 T03310156  RH  035%=      5-min Rain = 0
KPD3 111420Z 23011KT 33/16 A3001 RMK A01 T03340156  RH  034%=      5-min Rain = 0
KPD3 111421Z 22010KT 34/16 A3001 RMK A01 T03350157  RH  034%=      5-min Rain = 0
KPD3 111422Z 23011KT 34/16 A3001 RMK A01 T03350157  RH  034%=      5-min Rain = 0
KPD3 111423Z 22012KT 34/16 A3001 RMK A01 T03350155  RH  034%=      5-min Rain = 0
KPD3 111424Z 22011KT 33/16 A3001 RMK A01 T03340155  RH  034%=      5-min Rain = 0
KPD3 111425Z 22011KT 33/16 A3001 RMK A01 T03340155  RH  034%=      5-min Rain = 0
KPD3 111426Z 22010KT 33/16 A3001 RMK A01 T03340156  RH  034%=      5-min Rain = 0
KPD3 111427Z 22010KT 34/16 A3001 RMK A01 T03360156  RH  034%=      5-min Rain = 0
KPD3 111428Z 24012G19KT 34/16 A3001 RMK A01 T03370157  RH  034%=      5-min Rain = 0
KPD3 111429Z 23014KT 34/16 A3001 RMK A01 T03370155  RH  034%=      5-min Rain = 0
KPD3 111430Z 23012KT 34/16 A3001 RMK A01 T03350155  RH  034%=      5-min Rain = 0
KPD3 111431Z 23013KT 34/16 A3001 RMK A01 T03360155  RH  034%=      5-min Rain = 0
KPD3 111432Z 23014KT 34/16 A3001 RMK A01 T03370155  RH  034%=      5-min Rain = 0
KPD3 111433Z 23013KT 34/15 A3001 RMK A01 T03360154  RH  033%=      5-min Rain = 0
KPD3 111434Z 23012KT 34/15 A3001 RMK A01 T03360154  RH  034%=      5-min Rain = 0
KPD3 111435Z 23015G21KT 34/15 A3001 RMK A01 T03370154  RH  033%=      5-min Rain = 0
KPD3 111436Z 21014KT 34/15 A3001 RMK A01 T03380154  RH  033%=      5-min Rain = 0
KPD3 111437Z 22012G17KT 34/15 A3001 RMK A01 T03380154  RH  033%=      5-min Rain = 0
KPD3 111438Z 22013KT 34/15 A3001 RMK A01 T03380154  RH  033%=      5-min Rain = 0
KPD3 111439Z 22017G22KT 34/15 A3001 RMK A01 T03380154  RH  033%=      5-min Rain = 0
KPD3 111440Z 22015KT 34/15 A3001 RMK A01 T03370153  RH  033%=      5-min Rain = 0
KPD3 111441Z 22016KT 34/15 A3001 RMK A01 T03350153  RH  034%=      5-min Rain = 0
KPD3 111442Z 22014KT 33/15 A3001 RMK A01 T03340153  RH  034%=      5-min Rain = 0
KPD3 111443Z 21016KT 34/15 A3001 RMK A01 T03360154  RH  034%=      5-min Rain = 0
KPD3 111444Z 21017KT 34/15 A3001 RMK A01 T03370153  RH  033%=      5-min Rain = 0
KPD3 111445Z 22015KT 34/15 A3001 RMK A01 T03360153  RH  033%=      5-min Rain = 0
KPD3 111446Z 22015KT 34/15 A3001 RMK A01 T03360154  RH  034%=      5-min Rain = 0
KPD3 111447Z 22015KT 34/15 A3001 RMK A01 T03360154  RH  034%=      5-min Rain = 0
KPD3 111448Z 22012KT 34/15 A3001 RMK A01 T03360154  RH  034%=      5-min Rain = 0
KPD3 111449Z 22015KT 34/16 A3001 RMK A01 T03380155  RH  033%=      5-min Rain = 0
KPD3 111450Z 22016KT 34/15 A3001 RMK A01 T03390154  RH  033%=      5-min Rain = 0
KPD3 111451Z 22015KT 34/15 A3001 RMK A01 T03370154  RH  033%=      5-min Rain = 0
KPD3 111452Z 21014KT 34/15 A3001 RMK A01 T03370154  RH  033%=      5-min Rain = 0
KPD3 111453Z 21013KT 34/16 A3001 RMK A01 T03380155  RH  033%=      5-min Rain = 0
KPD3 111454Z 22014KT 34/15 A3001 RMK A01 T03370154  RH  033%=      5-min Rain = 0
KPD3 111455Z 21011KT 34/16 A3001 RMK A01 T03390156  RH  033%=      5-min Rain = 0
KPD3 111456Z 21016KT 34/16 A3001 RMK A01 T03420155  RH  033%=      5-min Rain = 0
KPD3 111457Z 20014KT 34/15 A3001 RMK A01 T03410154  RH  033%=      5-min Rain = 0
KPD3 111458Z 20013KT 34/16 A3001 RMK A01 T03400155  RH  033%=      5-min Rain = 0
KPD3 111459Z 20012KT 34/16 A3001 RMK A01 T03420155  RH  033%=      5-min Rain = 0
KPD3 111500Z 20010KT 34/16 A3001 RMK A01 T03430156  RH  033%=      5-min Rain = 0
KPD3 111501Z 20012KT 35/16 A3001 RMK A01 T03470157  RH  032%=      5-min Rain = 0
KPD3 111502Z 22013KT 35/16 A3001 RMK A01 T03470156  RH  032%=      5-min Rain = 0
KPD3 111503Z 22009KT 35/16 A3001 RMK A01 T03450155  RH  032%=      5-min Rain = 0
KPD3 111504Z 20011KT 34/16 A3001 RMK A01 T03440156  RH  032%=      5-min Rain = 0
KPD3 111505Z 21013KT 35/16 A3001 RMK A01 T03450155  RH  032%=      5-min Rain = 0
KPD3 111506Z 21009KT 34/16 A3001 RMK A01 T03430155  RH  033%=      5-min Rain = 0
KPD3 111507Z 20010KT 34/16 A3001 RMK A01 T03440156  RH  033%=      5-min Rain = 0
KPD3 111508Z 20011KT 35/16 A3001 RMK A01 T03450156  RH  032%=      5-min Rain = 0
KPD3 111509Z 20012KT 35/16 A3001 RMK A01 T03450156  RH  032%=      5-min Rain = 0
KPD3 111510Z 20009KT 35/16 A3001 RMK A01 T03460156  RH  032%=      5-min Rain = 0
KPD3 111511Z 20012KT 35/16 A3001 RMK A01 T03490158  RH  032%=      5-min Rain = 0
KPD3 111512Z 22009KT 35/16 A3001 RMK A01 T03510157  RH  032%=      5-min Rain = 0
KPD3 111513Z 21011KT 35/16 A3001 RMK A01 T03510157  RH  031%=      5-min Rain = 0
KPD3 111514Z 21011KT 35/16 A3001 RMK A01 T03510156  RH  031%=      5-min Rain = 0
KPD3 111515Z 22011KT 35/16 A3001 RMK A01 T03510156  RH  031%=      5-min Rain = 0
KPD3 111516Z 21010G15KT 35/16 A3001 RMK A01 T03500156  RH  031%=      5-min Rain = 0
KPD3 111517Z 20009KT 35/16 A3001 RMK A01 T03490156  RH  032%=      5-min Rain = 0
KPD3 111518Z 21009KT 35/16 A3001 RMK A01 T03500156  RH  031%=      5-min Rain = 0
KPD3 111519Z 23006KT 35/16 A3001 RMK A01 T03500156  RH  031%=      5-min Rain = 0
KPD3 111520Z 21006KT 35/16 A3001 RMK A01 T03500156  RH  031%=      5-min Rain = 0
KPD3 111521Z 19010KT 35/16 A3001 RMK A01 T03530157  RH  031%=      5-min Rain = 0
KPD3 111522Z 21007G12KT 35/16 A3001 RMK A01 T03540157  RH  031%=      5-min Rain = 0
KPD3 111523Z 22010KT 36/16 A3001 RMK A01 T03560157  RH  031%=      5-min Rain = 0
KPD3 111524Z 21010KT 36/16 A3001 RMK A01 T03550157  RH  031%=      5-min Rain = 0
KPD3 111525Z 20009KT 35/16 A3001 RMK A01 T03530156  RH  031%=      5-min Rain = 0
KPD3 111526Z 20008KT 35/16 A3001 RMK A01 T03510156  RH  031%=      5-min Rain = 0
KPD3 111527Z 22010KT 35/16 A3001 RMK A01 T03510156  RH  031%=      5-min Rain = 0
KPD3 111528Z 22011KT 35/16 A3002 RMK A01 T03530157  RH  031%=      5-min Rain = 0
KPD3 111529Z 21012KT 36/16 A3002 RMK A01 T03550156  RH  031%=      5-min Rain = 0
KPD3 111530Z 23014KT 36/16 A3002 RMK A01 T03550155  RH  030%=      5-min Rain = 0
KPD3 111531Z 24013KT 36/16 A3002 RMK A01 T03550155  RH  030%=      5-min Rain = 0
KPD3 111532Z 23011KT 36/16 A3002 RMK A01 T03550156  RH  031%=      5-min Rain = 0
KPD3 111533Z 23011KT 36/16 A3001 RMK A01 T03570156  RH  030%=      5-min Rain = 0
KPD3 111534Z 23012KT 36/16 A3001 RMK A01 T03580156  RH  030%=      5-min Rain = 0
KPD3 111535Z 24012KT 36/16 A3001 RMK A01 T03550155  RH  030%=      5-min Rain = 0
KPD3 111536Z 22011KT 35/16 A3001 RMK A01 T03530155  RH  031%=      5-min Rain = 0
KPD3 111537Z 20011KT 36/16 A3002 RMK A01 T03550157  RH  031%=      5-min Rain = 0
KPD3 111538Z 19012KT 36/16 A3002 RMK A01 T03580156  RH  030%=      5-min Rain = 0
KPD3 111539Z 22012KT 36/16 A3002 RMK A01 T03580156  RH  030%=      5-min Rain = 0
KPD3 111540Z 21012KT 36/16 A3002 RMK A01 T03590157  RH  030%=      5-min Rain = 0
KPD3 111541Z 21014KT 36/16 A3002 RMK A01 T03610157  RH  030%=      5-min Rain = 0
KPD3 111542Z 21012KT 36/16 A3002 RMK A01 T03620157  RH  030%=      5-min Rain = 0
KPD3 111543Z 20013KT 36/16 A3002 RMK A01 T03600156  RH  030%=      5-min Rain = 0
KPD3 111544Z 21011G16KT 36/16 A3002 RMK A01 T03570155  RH  030%=      5-min Rain = 0
KPD3 111545Z 21013KT 36/16 A3002 RMK A01 T03550155  RH  030%=      5-min Rain = 0
KPD3 111546Z 22015KT 36/16 A3002 RMK A01 T03560156  RH  030%=      5-min Rain = 0
KPD3 111547Z 22012KT 36/16 A3002 RMK A01 T03570155  RH  030%=      5-min Rain = 0
KPD3 111548Z 22013KT 36/16 A3002 RMK A01 T03580156  RH  030%=      5-min Rain = 0
KPD3 111549Z 21013KT 36/16 A3002 RMK A01 T03580155  RH  030%=      5-min Rain = 0
KPD3 111550Z 23011KT 36/16 A3002 RMK A01 T03560155  RH  030%=      5-min Rain = 0
KPD3 111551Z 20010KT 36/16 A3002 RMK A01 T03580157  RH  030%=      5-min Rain = 0
KPD3 111552Z 21011KT 36/16 A3002 RMK A01 T03600157  RH  030%=      5-min Rain = 0
KPD3 111553Z 24008KT 36/16 A3002 RMK A01 T03600157  RH  030%=      5-min Rain = 0
KPD3 111554Z 23009KT 36/16 A3002 RMK A01 T03600156  RH  030%=      5-min Rain = 0
KPD3 111555Z 21009KT 36/16 A3002 RMK A01 T03590157  RH  030%=      5-min Rain = 0
KPD3 111556Z 22012KT 36/16 A3002 RMK A01 T03620158  RH  030%=      5-min Rain = 0
KPD3 111557Z 23012KT 37/16 A3002 RMK A01 T03650157  RH  029%=      5-min Rain = 0
KPD3 111558Z 24011KT 37/16 A3002 RMK A01 T03650156  RH  029%=      5-min Rain = 0
KPD3 111559Z 22014KT 36/16 A3002 RMK A01 T03620156  RH  030%=      5-min Rain = 0
KPD3 111600Z 22011KT 36/16 A3002 RMK A01 T03630158  RH  030%=      5-min Rain = 0
KPD3 111601Z 22015G20KT 37/16 A3002 RMK A01 T03650158  RH  029%=      5-min Rain = 0
KPD3 111602Z 21016KT 36/16 A3002 RMK A01 T03640157  RH  029%=      5-min Rain = 0
KPD3 111603Z 21016KT 36/16 A3002 RMK A01 T03600156  RH  030%=      5-min Rain = 0
KPD3 111604Z 23014KT 36/16 A3002 RMK A01 T03570156  RH  030%=      5-min Rain = 0
KPD3 111605Z 22015KT 36/16 A3003 RMK A01 T03570156  RH  030%=      5-min Rain = 0
KPD3 111606Z 21017KT 36/16 A3003 RMK A01 T03580157  RH  030%=      5-min Rain = 0
KPD3 111607Z 22013KT 36/16 A3002 RMK A01 T03620159  RH  030%=      5-min Rain = 0
KPD3 111608Z 22016KT 37/16 A3002 RMK A01 T03660158  RH  029%=      5-min Rain = 0
KPD3 111609Z 24014KT 36/16 A3002 RMK A01 T03640157  RH  029%=      5-min Rain = 0
KPD3 111610Z 25015KT 36/16 A3002 RMK A01 T03620158  RH  030%=      5-min Rain = 0
KPD3 111611Z 22012KT 36/16 A3002 RMK A01 T03600156  RH  030%=      5-min Rain = 0
KPD3 111612Z 22011KT 36/16 A3002 RMK A01 T03580157  RH  030%=      5-min Rain = 0
KPD3 111613Z 22012KT 36/16 A3002 RMK A01 T03620159  RH  030%=      5-min Rain = 0
KPD3 111614Z 22015KT 36/16 A3002 RMK A01 T03640159  RH  030%=      5-min Rain = 0
KPD3 111615Z 22015KT 36/16 A3002 RMK A01 T03640162  RH  030%=      5-min Rain = 0
KPD3 111616Z 21015KT 37/16 A3002 RMK A01 T03660163  RH  030%=      5-min Rain = 0
KPD3 111617Z 23014KT 36/16 A3003 RMK A01 T03620162  RH  031%=      5-min Rain = 0
KPD3 111618Z 23014KT 36/16 A3003 RMK A01 T03560162  RH  032%=      5-min Rain = 0
KPD3 111619Z 23016KT 35/16 A3003 RMK A01 T03530163  RH  032%=      5-min Rain = 0
KPD3 111620Z 23014KT 35/17 A3003 RMK A01 T03530172  RH  034%=      5-min Rain = 0
KPD3 111621Z 23014KT 35/19 A3003 RMK A01 T03460193  RH  041%=      5-min Rain = 0
KPD3 111622Z 24013KT 33/19 A3003 RMK A01 T03310192  RH  044%=      5-min Rain = 0
KPD3 111623Z 24013KT 32/19 A3003 RMK A01 T03200188  RH  046%=      5-min Rain = 0
KPD3 111624Z 24013KT 32/19 A3003 RMK A01 T03150187  RH  046%=      5-min Rain = 0
KPD3 111625Z 24008KT 32/18 A3003 RMK A01 T03150179  RH  045%=      5-min Rain = 0
KPD3 111626Z 24009KT 32/19 A3003 RMK A01 T03170186  RH  046%=      5-min Rain = 0
KPD3 111627Z 24009KT 32/18 A3003 RMK A01 T03210176  RH  042%=      5-min Rain = 0
KPD3 111628Z 23008KT 32/18 A3003 RMK A01 T03220180  RH  043%=      5-min Rain = 0
KPD3 111629Z 22010KT 33/18 A3003 RMK A01 T03250182  RH  043%=      5-min Rain = 0
KPD3 111630Z 23009KT 32/18 A3004 RMK A01 T03240176  RH  041%=      5-min Rain = 0
KPD3 111631Z 24007KT 32/18 A3004 RMK A01 T03230179  RH  043%=      5-min Rain = 0
KPD3 111632Z 23008KT 32/18 A3004 RMK A01 T03230178  RH  042%=      5-min Rain = 0
KPD3 111633Z 23007KT 32/17 A3003 RMK A01 T03230174  RH  041%=      5-min Rain = 0
KPD3 111634Z 24007KT 32/18 A3003 RMK A01 T03240176  RH  041%=      5-min Rain = 0
KPD3 111635Z 24006KT 33/18 A3003 RMK A01 T03280176  RH  040%=      5-min Rain = 0
KPD3 111636Z 22005KT 33/17 A3003 RMK A01 T03300173  RH  039%=      5-min Rain = 0
KPD3 111637Z 23007KT 33/17 A3003 RMK A01 T03280168  RH  038%=      5-min Rain = 0
KPD3 111638Z 22009KT 33/17 A3003 RMK A01 T03260169  RH  039%=      5-min Rain = 0
KPD3 111639Z 20009KT 33/17 A3004 RMK A01 T03250169  RH  039%=      5-min Rain = 0
KPD3 111640Z 20013KT 32/17 A3004 RMK A01 T03230167  RH  039%=      5-min Rain = 0
KPD3 111641Z 19014KT 32/17 A3004 RMK A01 T03190169  RH  041%=      5-min Rain = 0
KPD3 111642Z 20010KT 32/17 A3004 RMK A01 T03150170  RH  042%=      5-min Rain = 0
KPD3 111643Z 21009KT 31/17 A3003 RMK A01 T03110171  RH  043%=      5-min Rain = 0
KPD3 111644Z 22010KT 31/18 A3003 RMK A01 T03080175  RH  045%=      5-min Rain = 0
KPD3 111645Z 21010KT 31/18 A3003 RMK A01 T03050175  RH  046%=      5-min Rain = 0
KPD3 111646Z 22010KT 30/18 A3003 RMK A01 T03020175  RH  046%=      5-min Rain = 0
KPD3 111647Z 22012KT 30/18 A3003 RMK A01 T03010176  RH  047%=      5-min Rain = 0
KPD3 111648Z 23010KT 30/18 A3003 RMK A01 T03000177  RH  048%=      5-min Rain = 0
KPD3 111649Z 22012KT 30/18 A3003 RMK A01 T02990178  RH  048%=      5-min Rain = 0
KPD3 111650Z 23013KT 30/18 A3003 RMK A01 T02980179  RH  049%=      5-min Rain = 0
KPD3 111651Z 23014KT 30/18 A3003 RMK A01 T02960179  RH  050%=      5-min Rain = 0
KPD3 111652Z 24012KT 29/18 A3002 RMK A01 T02930183  RH  051%=      5-min Rain = 0
KPD3 111653Z 24013KT 29/19 A3002 RMK A01 T02920187  RH  053%=      5-min Rain = 0
KPD3 111654Z 24015KT 29/19 A3002 RMK A01 T02890189  RH  055%=      5-min Rain = 0
KPD3 111655Z 24016KT 29/19 A3002 RMK A01 T02870189  RH  055%=      5-min Rain = 0
KPD3 111656Z 24014KT 28/19 A3002 RMK A01 T02840189  RH  056%=      5-min Rain = 0
KPD3 111657Z 24015KT 28/19 A3002 RMK A01 T02830189  RH  057%=      5-min Rain = 0
KPD3 111658Z 23014KT 28/19 A3002 RMK A01 T02840188  RH  056%=      5-min Rain = 0
KPD3 111659Z 23013KT 29/19 A3002 RMK A01 T02850189  RH  056%=      5-min Rain = 0
KPD3 111700Z 21013KT 29/19 A3003 RMK A01 T02860188  RH  055%=      5-min Rain = 0
KPD3 111701Z 20012KT 29/19 A3003 RMK A01 T02880194  RH  057%=      5-min Rain = 0
KPD3 111702Z 20013KT 29/19 A3003 RMK A01 T02880190  RH  056%=      5-min Rain = 0
KPD3 111703Z 18013KT 29/18 A3003 RMK A01 T02870184  RH  054%=      5-min Rain = 0
KPD3 111704Z 17013KT 29/18 A3002 RMK A01 T02900181  RH  052%=      5-min Rain = 0
KPD3 111705Z 19013KT 29/18 A3003 RMK A01 T02920182  RH  052%=      5-min Rain = 0
KPD3 111706Z 19011KT 29/18 A3002 RMK A01 T02930183  RH  051%=      5-min Rain = 0
KPD3 111707Z 20009KT 29/19 A3002 RMK A01 T02930187  RH  053%=      5-min Rain = 0
KPD3 111708Z 20009KT 29/19 A3002 RMK A01 T02930188  RH  053%=      5-min Rain = 0
KPD3 111709Z 21009KT 29/19 A3002 RMK A01 T02930190  RH  054%=      5-min Rain = 0
KPD3 111710Z 22009KT 29/19 A3002 RMK A01 T02930192  RH  055%=      5-min Rain = 0
KPD3 111711Z 22008KT 29/19 A3002 RMK A01 T02940194  RH  055%=      5-min Rain = 0
KPD3 111712Z 22008KT 30/20 A3001 RMK A01 T02990197  RH  054%=      5-min Rain = 0
KPD3 111713Z 22008KT 30/19 A3001 RMK A01 T03020194  RH  053%=      5-min Rain = 0
KPD3 111714Z 22008KT 31/20 A3001 RMK A01 T03050196  RH  052%=      5-min Rain = 0
KPD3 111715Z 22011KT 31/19 A3001 RMK A01 T03130192  RH  049%=      5-min Rain = 0
KPD3 111716Z 22013G18KT 32/19 A3001 RMK A01 T03220186  RH  045%=      5-min Rain = 0
KPD3 111717Z 24016KT 33/18 A3001 RMK A01 T03310178  RH  040%=      5-min Rain = 0
KPD3 111718Z 24013KT 34/18 A3001 RMK A01 T03400177  RH  038%=      5-min Rain = 0
KPD3 111719Z 23016G21KT 35/18 A3001 RMK A01 T03480180  RH  037%=      5-min Rain = 0
KPD3 111720Z 23016KT 35/18 A3001 RMK A01 T03520177  RH  036%=      5-min Rain = 0
KPD3 111721Z 23014KT 35/18 A3001 RMK A01 T03540177  RH  035%=      5-min Rain = 0
KPD3 111722Z 23015KT 36/17 A3001 RMK A01 T03550172  RH  034%=      5-min Rain = 0
KPD3 111723Z 23016KT 35/17 A3001 RMK A01 T03540170  RH  034%=      5-min Rain = 0
KPD3 111724Z 24013KT 35/17 A30 RMK A01 T03520172  RH  034%=      5-min Rain = 0
KPD3 111725Z 25014KT 35/17 A30 RMK A01 T03540172  RH  034%=      5-min Rain = 0
KPD3 111726Z 23014G19KT 35/17 A30 RMK A01 T03540172  RH  034%=      5-min Rain = 0
KPD3 111727Z 22013KT 36/17 A30 RMK A01 T03570174  RH  034%=      5-min Rain = 0
KPD3 111728Z 23013KT 36/17 A30 RMK A01 T03590173  RH  033%=      5-min Rain = 0
KPD3 111729Z 23014KT 36/17 A30 RMK A01 T03570173  RH  034%=      5-min Rain = 0
KPD3 111730Z 22016KT 36/17 A30 RMK A01 T03570172  RH  034%=      5-min Rain = 0
KPD3 111731Z 23015KT 36/17 A30 RMK A01 T03570172  RH  033%=      5-min Rain = 0
KPD3 111732Z 23015KT 36/17 A30 RMK A01 T03560170  RH  033%=      5-min Rain = 0
KPD3 111733Z 22012KT 35/17 A30 RMK A01 T03530169  RH  034%=      5-min Rain = 0
KPD3 111734Z 23011KT 35/17 A30 RMK A01 T03540172  RH  034%=      5-min Rain = 0
KPD3 111735Z 22011KT 36/17 A30 RMK A01 T03610173  RH  033%=      5-min Rain = 0
KPD3 111736Z 22013KT 37/17 A30 RMK A01 T03670170  RH  031%=      5-min Rain = 0
KPD3 111737Z 22010KT 36/17 A30 RMK A01 T03640170  RH  032%=      5-min Rain = 0
KPD3 111738Z 22012KT 36/17 A30 RMK A01 T03630169  RH  032%=      5-min Rain = 0
KPD3 111739Z 21012KT 36/17 A30 RMK A01 T03630168  RH  032%=      5-min Rain = 0
KPD3 111740Z 22010KT 36/17 A30 RMK A01 T03620169  RH  032%=      5-min Rain = 0
KPD3 111741Z 23012KT 36/17 A30 RMK A01 T03630168  RH  032%=      5-min Rain = 0
KPD3 111742Z 22011G17KT 36/17 A30 RMK A01 T03610166  RH  032%=      5-min Rain = 0
KPD3 111743Z 23013KT 36/16 A30 RMK A01 T03610162  RH  031%=      5-min Rain = 0
KPD3 111744Z 23012KT 36/16 A30 RMK A01 T03610163  RH  031%=      5-min Rain = 0
KPD3 111745Z 22012KT 36/16 A30 RMK A01 T03620164  RH  031%=      5-min Rain = 0
KPD3 111746Z 22010KT 36/16 A30 RMK A01 T03620164  RH  031%=      5-min Rain = 0
KPD3 111747Z 24009KT 36/16 A30 RMK A01 T03610164  RH  031%=      5-min Rain = 0
KPD3 111748Z 23011KT 36/17 A30 RMK A01 T03630166  RH  031%=      5-min Rain = 0
KPD3 111749Z 24010KT 37/17 A30 RMK A01 T03660166  RH  031%=      5-min Rain = 0
KPD3 111750Z 25010KT 37/17 A30 RMK A01 T03690165  RH  030%=      5-min Rain = 0
KPD3 111751Z 25011KT 37/16 A30 RMK A01 T03670163  RH  030%=      5-min Rain = 0
KPD3 111752Z 24012KT 37/16 A30 RMK A01 T03660163  RH  030%=      5-min Rain = 0
KPD3 111753Z 23013KT 37/16 A30 RMK A01 T03670164  RH  030%=      5-min Rain = 0
KPD3 111754Z 23012KT 37/16 A30 RMK A01 T03670164  RH  030%=      5-min Rain = 0
KPD3 111755Z 24013G18KT 37/17 A30 RMK A01 T03650165  RH  031%=      5-min Rain = 0
KPD3 111756Z 24012KT 37/17 A30 RMK A01 T03690166  RH  030%=      5-min Rain = 0
KPD3 111757Z 23016KT 37/17 A30 RMK A01 T03690166  RH  030%=      5-min Rain = 0
KPD3 111758Z 23011G16KT 37/17 A30 RMK A01 T03690165  RH  030%=      5-min Rain = 0
KPD3 111759Z 24013KT 37/16 A30 RMK A01 T03670163  RH  030%=      5-min Rain = 0
KPD3 111800Z 23013KT 37/16 A30 RMK A01 T03670163  RH  030%=      5-min Rain = 0
KPD3 111801Z 23013KT 37/16 A30 RMK A01 T03690162  RH  029%=      5-min Rain = 0
KPD3 111802Z 24013KT 37/16 A2999 RMK A01 T03680160  RH  029%=      5-min Rain = 0
KPD3 111803Z 24014KT 36/16 A2999 RMK A01 T03640158  RH  030%=      5-min Rain = 0
KPD3 111804Z 23011G17KT 37/16 A2999 RMK A01 T03650160  RH  030%=      5-min Rain = 0
KPD3 111805Z 24011KT 37/16 A2999 RMK A01 T03690163  RH  030%=      5-min Rain = 0
KPD3 111806Z 25012KT 37/16 A2999 RMK A01 T03730162  RH  029%=      5-min Rain = 0
KPD3 111807Z 25011KT 37/16 A2999 RMK A01 T03700162  RH  029%=      5-min Rain = 0
KPD3 111808Z 26010KT 37/16 A2999 RMK A01 T03710162  RH  029%=      5-min Rain = 0
KPD3 111809Z 26009KT 37/16 A2999 RMK A01 T03710162  RH  029%=      5-min Rain = 0
KPD3 111810Z 24009KT 37/16 A2999 RMK A01 T03720162  RH  029%=      5-min Rain = 0
KPD3 111811Z 22010G15KT 38/16 A2999 RMK A01 T03750161  RH  028%=      5-min Rain = 0
KPD3 111812Z 22011KT 38/16 A2999 RMK A01 T03780158  RH  027%=      5-min Rain = 0
KPD3 111813Z 22010KT 38/16 A2999 RMK A01 T03780159  RH  028%=      5-min Rain = 0
KPD3 111814Z 22009G14KT 38/16 A2998 RMK A01 T03790159  RH  027%=      5-min Rain = 0
KPD3 111815Z 24010KT 38/16 A2998 RMK A01 T03810159  RH  027%=      5-min Rain = 0
KPD3 111816Z 24009KT 38/16 A2998 RMK A01 T03800159  RH  027%=      5-min Rain = 0
KPD3 111817Z 23014KT 38/16 A2998 RMK A01 T03790159  RH  027%=      5-min Rain = 0
KPD3 111818Z 24015KT 38/16 A2998 RMK A01 T03790158  RH  027%=      5-min Rain = 0
KPD3 111819Z 23013KT 38/16 A2998 RMK A01 T03830160  RH  027%=      5-min Rain = 0
KPD3 111820Z 24013KT 39/16 A2998 RMK A01 T03880159  RH  026%=      5-min Rain = 0
KPD3 111821Z 22012KT 39/16 A2998 RMK A01 T03870160  RH  026%=      5-min Rain = 0
KPD3 111822Z 22010KT 39/16 A2998 RMK A01 T03880160  RH  026%=      5-min Rain = 0
KPD3 111823Z 22013KT 39/16 A2998 RMK A01 T03860159  RH  026%=      5-min Rain = 0
KPD3 111824Z 23011KT 39/16 A2998 RMK A01 T03860159  RH  026%=      5-min Rain = 0
KPD3 111825Z 22010KT 39/16 A2998 RMK A01 T03860160  RH  027%=      5-min Rain = 0
KPD3 111826Z 23010KT 39/16 A2998 RMK A01 T03850159  RH  026%=      5-min Rain = 0
KPD3 111827Z 19010KT 38/16 A2998 RMK A01 T03840159  RH  027%=      5-min Rain = 0
KPD3 111828Z 18013KT 38/16 A2998 RMK A01 T03840158  RH  027%=      5-min Rain = 0
KPD3 111829Z 18008KT 38/16 A2998 RMK A01 T03820157  RH  027%=      5-min Rain = 0
KPD3 111830Z 20010G17KT 38/16 A2998 RMK A01 T03780157  RH  027%=      5-min Rain = 0
KPD3 111831Z 21011KT 38/15 A2998 RMK A01 T03780154  RH  027%=      5-min Rain = 0
KPD3 111832Z 21013KT 38/15 A2998 RMK A01 T03780154  RH  027%=      5-min Rain = 0
KPD3 111833Z 22009KT 38/16 A2998 RMK A01 T03790155  RH  027%=      5-min Rain = 0
KPD3 111834Z 22006KT 38/16 A2998 RMK A01 T03780155  RH  027%=      5-min Rain = 0
KPD3 111835Z 22005KT 38/16 A2998 RMK A01 T03800156  RH  027%=      5-min Rain = 0
KPD3 111836Z 19006KT 38/16 A2998 RMK A01 T03810156  RH  026%=      5-min Rain = 0
KPD3 111837Z 21010G15KT 38/15 A2998 RMK A01 T03830154  RH  026%=      5-min Rain = 0
KPD3 111838Z 21009KT 39/15 A2998 RMK A01 T03850150  RH  025%=      5-min Rain = 0
KPD3 111839Z 20010KT 38/15 A2998 RMK A01 T03840148  RH  025%=      5-min Rain = 0
KPD3 111840Z 20007KT 39/15 A2997 RMK A01 T03850146  RH  024%=      5-min Rain = 0
KPD3 111841Z 19006KT 39/15 A2997 RMK A01 T03850145  RH  024%=      5-min Rain = 0
KPD3 111842Z 21007KT 39/15 A2997 RMK A01 T03860148  RH  024%=      5-min Rain = 0
KPD3 111843Z 21013G19KT 39/15 A2997 RMK A01 T03900154  RH  025%=      5-min Rain = 0
KPD3 111844Z 19011KT 40/15 A2997 RMK A01 T03950154  RH  024%=      5-min Rain = 0
KPD3 111845Z 19010KT 40/16 A2997 RMK A01 T03950155  RH  025%=      5-min Rain = 0
KPD3 111846Z 17008KT 40/16 A2997 RMK A01 T03950156  RH  025%=      5-min Rain = 0
KPD3 111847Z 18008KT 40/15 A2997 RMK A01 T03950154  RH  024%=      5-min Rain = 0
KPD3 111848Z 20006KT 39/15 A2997 RMK A01 T03910152  RH  025%=      5-min Rain = 0
KPD3 111849Z 23005KT 39/15 A2997 RMK A01 T03900150  RH  024%=      5-min Rain = 0
KPD3 111850Z 20007KT 39/15 A2997 RMK A01 T03920152  RH  024%=      5-min Rain = 0
KPD3 111851Z 21011KT 39/15 A2997 RMK A01 T03930153  RH  024%=      5-min Rain = 0
KPD3 111852Z 18011KT 39/16 A2997 RMK A01 T03940156  RH  025%=      5-min Rain = 0
KPD3 111853Z 17007KT 39/16 A2997 RMK A01 T03940157  RH  025%=      5-min Rain = 0
KPD3 111854Z 19006KT 39/16 A2997 RMK A01 T03920157  RH  025%=      5-min Rain = 0
KPD3 111855Z 21010KT 39/16 A2997 RMK A01 T03920158  RH  025%=      5-min Rain = 0
KPD3 111856Z 22011G16KT 39/16 A2997 RMK A01 T03920157  RH  025%=      5-min Rain = 0
KPD3 111857Z 21012KT 39/16 A2997 RMK A01 T03900158  RH  026%=      5-min Rain = 0
KPD3 111858Z 20012KT 39/16 A2997 RMK A01 T03910158  RH  025%=      5-min Rain = 0
KPD3 111859Z 19007KT 39/16 A2997 RMK A01 T03880156  RH  026%=      5-min Rain = 0
KPD3 111900Z 20006KT 39/16 A2997 RMK A01 T03870157  RH  026%=      5-min Rain = 0
KPD3 111901Z 17008KT 39/16 A2996 RMK A01 T03900158  RH  026%=      5-min Rain = 0
KPD3 111902Z 18007KT 39/16 A2996 RMK A01 T03930158  RH  025%=      5-min Rain = 0
KPD3 111903Z 20006KT 39/16 A2996 RMK A01 T03940158  RH  025%=      5-min Rain = 0
KPD3 111904Z 18009KT 39/16 A2996 RMK A01 T03920157  RH  025%=      5-min Rain = 0
KPD3 111905Z 16008KT 39/16 A2996 RMK A01 T03900156  RH  025%=      5-min Rain = 0
KPD3 111906Z 13008KT 39/16 A2996 RMK A01 T03910157  RH  025%=      5-min Rain = 0
KPD3 111907Z 16007KT 39/16 A2996 RMK A01 T03900157  RH  025%=      5-min Rain = 0
KPD3 111908Z 17005KT 39/16 A2996 RMK A01 T03910157  RH  025%=      5-min Rain = 0
KPD3 111909Z 19010KT 39/16 A2996 RMK A01 T03910158  RH  025%=      5-min Rain = 0
KPD3 111910Z 19011KT 39/16 A2996 RMK A01 T03920157  RH  025%=      5-min Rain = 0
KPD3 111911Z 21008KT 39/16 A2996 RMK A01 T03930159  RH  025%=      5-min Rain = 0
KPD3 111912Z 23008KT 40/16 A2996 RMK A01 T03960158  RH  025%=      5-min Rain = 0
KPD3 111913Z 22007G12KT 39/16 A2996 RMK A01 T03920158  RH  025%=      5-min Rain = 0
KPD3 111914Z 18010KT 39/16 A2996 RMK A01 T03910158  RH  025%=      5-min Rain = 0
KPD3 111915Z 17008KT 39/16 A2996 RMK A01 T03910157  RH  025%=      5-min Rain = 0
KPD3 111916Z 18006KT 39/16 A2996 RMK A01 T03910157  RH  025%=      5-min Rain = 0
KPD3 111917Z 22004KT 39/16 A2995 RMK A01 T03910158  RH  026%=      5-min Rain = 0
KPD3 111918Z 22005KT 39/16 A2995 RMK A01 T03900160  RH  026%=      5-min Rain = 0
KPD3 111919Z 19009KT 39/16 A2995 RMK A01 T03910158  RH  026%=      5-min Rain = 0
KPD3 111920Z 17007KT 39/16 A2995 RMK A01 T03930159  RH  025%=      5-min Rain = 0
KPD3 111921Z 19002KT 39/16 A2995 RMK A01 T03930159  RH  025%=      5-min Rain = 0
KPD3 111922Z 19005G10KT 39/16 A2995 RMK A01 T03920159  RH  026%=      5-min Rain = 0
KPD3 111923Z 16008KT 39/16 A2995 RMK A01 T03940160  RH  025%=      5-min Rain = 0
KPD3 111924Z 17009KT 40/16 A2995 RMK A01 T03980160  RH  025%=      5-min Rain = 0
KPD3 111925Z 16008KT 40/16 A2995 RMK A01 T03970160  RH  025%=      5-min Rain = 0
KPD3 111926Z 16008KT 40/16 A2995 RMK A01 T03960159  RH  025%=      5-min Rain = 0
KPD3 111927Z 18008G13KT 39/16 A2995 RMK A01 T03940158  RH  025%=      5-min Rain = 0
KPD3 111928Z 19007KT 39/16 A2995 RMK A01 T03890157  RH  026%=      5-min Rain = 0
KPD3 111929Z 18012KT 39/16 A2995 RMK A01 T03920159  RH  026%=      5-min Rain = 0
KPD3 111930Z 20012G17KT 39/16 A2995 RMK A01 T03940157  RH  025%=      5-min Rain = 0
KPD3 111931Z 20017KT 40/16 A2994 RMK A01 T03950157  RH  025%=      5-min Rain = 0
KPD3 111932Z 21013G18KT 40/16 A2994 RMK A01 T03980158  RH  025%=      5-min Rain = 0
KPD3 111933Z 21010KT 40/16 A2994 RMK A01 T03960156  RH  025%=      5-min Rain = 0
KPD3 111934Z 21009KT 39/16 A2994 RMK A01 T03930157  RH  025%=      5-min Rain = 0
KPD3 111935Z 22009KT 40/16 A2994 RMK A01 T03950156  RH  025%=      5-min Rain = 0
KPD3 111936Z 21006KT 40/16 A2994 RMK A01 T03950157  RH  025%=      5-min Rain = 0
KPD3 111937Z 23011KT 40/16 A2994 RMK A01 T03960158  RH  025%=      5-min Rain = 0
KPD3 111938Z 22010KT 40/16 A2994 RMK A01 T04010158  RH  024%=      5-min Rain = 0
KPD3 111939Z 23013KT 40/16 A2994 RMK A01 T04010158  RH  024%=      5-min Rain = 0
KPD3 111940Z 24013KT 40/16 A2994 RMK A01 T04000157  RH  024%=      5-min Rain = 0
KPD3 111941Z 24011KT 40/16 A2994 RMK A01 T03970158  RH  025%=      5-min Rain = 0
KPD3 111942Z 22009KT 40/16 A2994 RMK A01 T03970158  RH  025%=      5-min Rain = 0
KPD3 111943Z 21013KT 40/16 A2994 RMK A01 T03970158  RH  025%=      5-min Rain = 0
KPD3 111944Z 23014KT 40/16 A2993 RMK A01 T03990159  RH  025%=      5-min Rain = 0
KPD3 111945Z 21013G18KT 40/16 A2993 RMK A01 T04010160  RH  024%=      5-min Rain = 0
KPD3 111946Z 18010KT 41/16 A2993 RMK A01 T04060161  RH  024%=      5-min Rain = 0
KPD3 111947Z 18013KT 41/16 A2993 RMK A01 T04100160  RH  023%=      5-min Rain = 0
KPD3 111948Z 21011KT 41/16 A2993 RMK A01 T04100160  RH  023%=      5-min Rain = 0
KPD3 111949Z 19017KT 41/16 A2993 RMK A01 T04130160  RH  023%=      5-min Rain = 0
KPD3 111950Z 18013KT 41/16 A2993 RMK A01 T04140160  RH  023%=      5-min Rain = 0
KPD3 111951Z 18014KT 41/16 A2993 RMK A01 T04140160  RH  023%=      5-min Rain = 0
KPD3 111952Z 16010KT 41/16 A2993 RMK A01 T04120159  RH  023%=      5-min Rain = 0
KPD3 111953Z 17012KT 41/16 A2993 RMK A01 T04070158  RH  023%=      5-min Rain = 0
KPD3 111954Z 17008KT 41/16 A2993 RMK A01 T04060157  RH  023%=      5-min Rain = 0
KPD3 111955Z 18009KT 40/16 A2993 RMK A01 T04040157  RH  024%=      5-min Rain = 0
KPD3 111956Z 18012KT 40/16 A2993 RMK A01 T04040157  RH  024%=      5-min Rain = 0
KPD3 111957Z 18010KT 41/16 A2993 RMK A01 T04050158  RH  024%=      5-min Rain = 0
KPD3 111958Z 15008KT 41/16 A2993 RMK A01 T04050159  RH  024%=      5-min Rain = 0
KPD3 111959Z 18007KT 41/16 A2993 RMK A01 T04070159  RH  024%=      5-min Rain = 0
KPD3 112000Z 18007KT 41/16 A2993 RMK A01 T04080159  RH  023%=      5-min Rain = 0
KPD3 112001Z 17004KT 41/16 A2993 RMK A01 T04090158  RH  023%=      5-min Rain = 0
KPD3 112002Z 19003KT 41/16 A2993 RMK A01 T04090158  RH  023%=      5-min Rain = 0
KPD3 112003Z 24005KT 41/16 A2993 RMK A01 T04090160  RH  024%=      5-min Rain = 0
KPD3 112004Z 24006KT 41/16 A2993 RMK A01 T04050158  RH  024%=      5-min Rain = 0
KPD3 112005Z 21006KT 40/16 A2993 RMK A01 T03990155  RH  024%=      5-min Rain = 0
KPD3 112006Z 21008KT 39/16 A2993 RMK A01 T03940155  RH  025%=      5-min Rain = 0
KPD3 112007Z 21006KT 40/16 A2993 RMK A01 T03970158  RH  025%=      5-min Rain = 0
KPD3 112008Z 21007G12KT 40/16 A2993 RMK A01 T03990158  RH  024%=      5-min Rain = 0
KPD3 112009Z 19012KT 40/16 A2993 RMK A01 T03980157  RH  024%=      5-min Rain = 0
KPD3 112010Z 19011KT 40/16 A2993 RMK A01 T03960156  RH  025%=      5-min Rain = 0
KPD3 112011Z 18008KT 39/16 A2993 RMK A01 T03920155  RH  025%=      5-min Rain = 0
KPD3 112012Z 19008KT 39/16 A2993 RMK A01 T03900156  RH  025%=      5-min Rain = 0
KPD3 112013Z 20006KT 39/16 A2992 RMK A01 T03900156  RH  025%=      5-min Rain = 0
KPD3 112014Z 19006KT 39/16 A2992 RMK A01 T03870156  RH  026%=      5-min Rain = 0
KPD3 112015Z 20007KT 39/16 A2992 RMK A01 T03870157  RH  026%=      5-min Rain = 0
KPD3 112016Z 22007KT 39/16 A2992 RMK A01 T03900160  RH  026%=      5-min Rain = 0
KPD3 112017Z 20012G17KT 40/16 A2992 RMK A01 T03960162  RH  026%=      5-min Rain = 0
KPD3 112018Z 17014KT 40/16 A2992 RMK A01 T04000161  RH  025%=      5-min Rain = 0
KPD3 112019Z 20011KT 41/16 A2992 RMK A01 T04060163  RH  024%=      5-min Rain = 0
KPD3 112020Z 19011KT 41/16 A2992 RMK A01 T04100162  RH  024%=      5-min Rain = 0
KPD3 112021Z 21010KT 41/16 A2992 RMK A01 T04070162  RH  024%=      5-min Rain = 0
KPD3 112022Z 20011KT 41/16 A2992 RMK A01 T04090161  RH  024%=      5-min Rain = 0
KPD3 112023Z 20013KT 41/16 A2992 RMK A01 T04130162  RH  023%=      5-min Rain = 0
KPD3 112024Z 18013KT 41/16 A2992 RMK A01 T04140158  RH  023%=      5-min Rain = 0
KPD3 112025Z 16013KT 41/16 A2992 RMK A01 T04100155  RH  023%=      5-min Rain = 0
KPD3 112026Z 17014KT 40/16 A2992 RMK A01 T04030155  RH  023%=      5-min Rain = 0
KPD3 112027Z 17012KT 40/15 A2992 RMK A01 T04000154  RH  024%=      5-min Rain = 0
KPD3 112028Z 17013KT 39/15 A2992 RMK A01 T03940153  RH  024%=      5-min Rain = 0
KPD3 112029Z 17012KT 39/15 A2992 RMK A01 T03900154  RH  025%=      5-min Rain = 0
KPD3 112030Z 17014KT 39/16 A2992 RMK A01 T03910155  RH  025%=      5-min Rain = 0
KPD3 112031Z 16015KT 40/16 A2992 RMK A01 T03980158  RH  025%=      5-min Rain = 0
KPD3 112032Z 16016KT 40/16 A2992 RMK A01 T04020155  RH  024%=      5-min Rain = 0
KPD3 112033Z 17013KT 40/15 A2992 RMK A01 T03960154  RH  024%=      5-min Rain = 0
KPD3 112034Z 18012KT 39/15 A2992 RMK A01 T03920153  RH  025%=      5-min Rain = 0
KPD3 112035Z 18013KT 39/15 A2992 RMK A01 T03880152  RH  025%=      5-min Rain = 0
KPD3 112036Z 18012KT 39/15 A2992 RMK A01 T03880152  RH  025%=      5-min Rain = 0
KPD3 112037Z 18010KT 39/15 A2992 RMK A01 T03880153  RH  025%=      5-min Rain = 0
KPD3 112038Z 17011KT 39/15 A2991 RMK A01 T03880152  RH  025%=      5-min Rain = 0
KPD3 112039Z 15012KT 39/15 A2991 RMK A01 T03880151  RH  025%=      5-min Rain = 0
KPD3 112040Z 16012KT 39/15 A2991 RMK A01 T03900151  RH  025%=      5-min Rain = 0
KPD3 112041Z 16009KT 39/15 A2991 RMK A01 T03900152  RH  025%=      5-min Rain = 0
KPD3 112042Z 15011KT 39/15 A2991 RMK A01 T03890151  RH  025%=      5-min Rain = 0
KPD3 112043Z 16009KT 39/15 A2991 RMK A01 T03890152  RH  025%=      5-min Rain = 0
KPD3 112044Z 17010KT 39/15 A2991 RMK A01 T03890152  RH  025%=      5-min Rain = 0
KPD3 112045Z 17012KT 39/15 A2991 RMK A01 T03900153  RH  025%=      5-min Rain = 0
KPD3 112046Z 17011KT 39/15 A2991 RMK A01 T03900154  RH  025%=      5-min Rain = 0
KPD3 112047Z 17011KT 39/16 A2991 RMK A01 T03910156  RH  025%=      5-min Rain = 0
KPD3 112048Z 17013KT 39/16 A2991 RMK A01 T03920155  RH  025%=      5-min Rain = 0
KPD3 112049Z 18015KT 39/16 A2991 RMK A01 T03930157  RH  025%=      5-min Rain = 0
KPD3 112050Z 18013G19KT 39/16 A2991 RMK A01 T03910157  RH  025%=      5-min Rain = 0
KPD3 112051Z 17016KT 39/16 A2991 RMK A01 T03910158  RH  026%=      5-min Rain = 0
KPD3 112052Z 17015KT 39/16 A2991 RMK A01 T03880157  RH  026%=      5-min Rain = 0
KPD3 112053Z 17013KT 39/16 A2992 RMK A01 T03870158  RH  026%=      5-min Rain = 0
KPD3 112054Z 18011KT 39/16 A2992 RMK A01 T03870158  RH  026%=      5-min Rain = 0
KPD3 112055Z 18011KT 39/16 A2992 RMK A01 T03910158  RH  026%=      5-min Rain = 0
KPD3 112056Z 18010KT 40/16 A2992 RMK A01 T03960158  RH  025%=      5-min Rain = 0
KPD3 112057Z 17011KT 40/16 A2992 RMK A01 T03980157  RH  024%=      5-min Rain = 0
KPD3 112058Z 16010KT 40/16 A2992 RMK A01 T03970158  RH  025%=      5-min Rain = 0
KPD3 112059Z 16011KT 40/16 A2991 RMK A01 T03970157  RH  025%=      5-min Rain = 0
KPD3 112100Z 16010KT 39/16 A2991 RMK A01 T03930155  RH  025%=      5-min Rain = 0
KPD3 112101Z 16010KT 39/16 A2991 RMK A01 T03920156  RH  025%=      5-min Rain = 0
KPD3 112102Z 16011KT 39/16 A2991 RMK A01 T03940157  RH  025%=      5-min Rain = 0
KPD3 112103Z 16013KT 40/16 A2991 RMK A01 T03990159  RH  025%=      5-min Rain = 0
KPD3 112104Z 17014KT 40/16 A2991 RMK A01 T04040159  RH  024%=      5-min Rain = 0
KPD3 112105Z 18013KT 40/16 A2991 RMK A01 T04010157  RH  024%=      5-min Rain = 0
KPD3 112106Z 18012KT 40/16 A2991 RMK A01 T03960157  RH  025%=      5-min Rain = 0
KPD3 112107Z 18011KT 39/16 A2991 RMK A01 T03920156  RH  025%=      5-min Rain = 0
KPD3 112108Z 17012KT 39/16 A2991 RMK A01 T03880156  RH  025%=      5-min Rain = 0
KPD3 112109Z 17011KT 39/16 A2991 RMK A01 T03850155  RH  026%=      5-min Rain = 0
KPD3 112110Z 17009KT 38/16 A2991 RMK A01 T03830156  RH  026%=      5-min Rain = 0
KPD3 112111Z 17008KT 38/16 A2991 RMK A01 T03820158  RH  027%=      5-min Rain = 0
KPD3 112112Z 17009KT 38/16 A2991 RMK A01 T03810158  RH  027%=      5-min Rain = 0
KPD3 112113Z 17008KT 38/16 A2991 RMK A01 T03810158  RH  027%=      5-min Rain = 0
KPD3 112114Z 18008KT 38/16 A2991 RMK A01 T03800160  RH  028%=      5-min Rain = 0
KPD3 112115Z 19008KT 38/16 A2991 RMK A01 T03790162  RH  028%=      5-min Rain = 0
KPD3 112116Z 18009KT 38/16 A2991 RMK A01 T03780162  RH  028%=      5-min Rain = 0
KPD3 112117Z 20009KT 38/16 A2991 RMK A01 T03800160  RH  028%=      5-min Rain = 0
KPD3 112118Z 19008KT 38/16 A2991 RMK A01 T03820161  RH  027%=      5-min Rain = 0
KPD3 112119Z 20010KT 39/16 A2991 RMK A01 T03850161  RH  027%=      5-min Rain = 0
KPD3 112120Z 20010KT 38/16 A2991 RMK A01 T03840159  RH  027%=      5-min Rain = 0
KPD3 112121Z 21010KT 38/16 A2991 RMK A01 T03830158  RH  027%=      5-min Rain = 0
KPD3 112122Z 20009KT 38/16 A2991 RMK A01 T03830159  RH  027%=      5-min Rain = 0
KPD3 112123Z 20009KT 38/16 A2991 RMK A01 T03830159  RH  027%=      5-min Rain = 0
KPD3 112124Z 19009KT 38/16 A2991 RMK A01 T03840159  RH  027%=      5-min Rain = 0
KPD3 112125Z 19009KT 38/16 A2991 RMK A01 T03840159  RH  027%=      5-min Rain = 0
KPD3 112126Z 18010KT 38/16 A2991 RMK A01 T03840160  RH  027%=      5-min Rain = 0
KPD3 112127Z 18008KT 39/16 A2991 RMK A01 T03860161  RH  027%=      5-min Rain = 0
KPD3 112128Z 18007KT 39/16 A2991 RMK A01 T03870161  RH  026%=      5-min Rain = 0
KPD3 112129Z 18007KT 39/16 A2991 RMK A01 T03870160  RH  026%=      5-min Rain = 0
KPD3 112130Z 18013KT 39/16 A2991 RMK A01 T03870160  RH  026%=      5-min Rain = 0
KPD3 112131Z 18013KT 39/16 A299 RMK A01 T03880160  RH  026%=      5-min Rain = 0
KPD3 112132Z 17013KT 39/16 A299 RMK A01 T03910160  RH  026%=      5-min Rain = 0
KPD3 112133Z 19011KT 39/16 A299 RMK A01 T03920160  RH  026%=      5-min Rain = 0
KPD3 112134Z 20010KT 39/16 A299 RMK A01 T03900159  RH  026%=      5-min Rain = 0
KPD3 112135Z 18011KT 39/16 A299 RMK A01 T03870159  RH  026%=      5-min Rain = 0
KPD3 112136Z 19010KT 39/16 A299 RMK A01 T03870159  RH  026%=      5-min Rain = 0
KPD3 112137Z 19011KT 39/16 A299 RMK A01 T03890160  RH  026%=      5-min Rain = 0
KPD3 112138Z 20013KT 39/16 A299 RMK A01 T03900159  RH  026%=      5-min Rain = 0
KPD3 112139Z 20011KT 39/16 A299 RMK A01 T03910159  RH  026%=      5-min Rain = 0
KPD3 112140Z 20010KT 39/16 A299 RMK A01 T03910158  RH  025%=      5-min Rain = 0
KPD3 112141Z 20008KT 39/16 A299 RMK A01 T03920156  RH  025%=      5-min Rain = 0
KPD3 112142Z 17007KT 39/16 A299 RMK A01 T03940157  RH  025%=      5-min Rain = 0
KPD3 112143Z 18010KT 40/16 A299 RMK A01 T03970157  RH  025%=      5-min Rain = 0
KPD3 112144Z 18009KT 40/16 A299 RMK A01 T03990155  RH  024%=      5-min Rain = 0
KPD3 112145Z 18006KT 40/16 A299 RMK A01 T03990155  RH  024%=      5-min Rain = 0
KPD3 112146Z 20009KT 40/16 A299 RMK A01 T03980156  RH  024%=      5-min Rain = 0
KPD3 112147Z 22010KT 40/16 A299 RMK A01 T03980156  RH  024%=      5-min Rain = 0
KPD3 112148Z 22011KT 40/16 A299 RMK A01 T03990157  RH  024%=      5-min Rain = 0
KPD3 112149Z 20014KT 40/16 A299 RMK A01 T04000157  RH  024%=      5-min Rain = 0
KPD3 112150Z 19014KT 40/15 A299 RMK A01 T03990154  RH  024%=      5-min Rain = 0
KPD3 112151Z 20009KT 40/16 A299 RMK A01 T03980155  RH  024%=      5-min Rain = 0
KPD3 112152Z 20009KT 40/16 A299 RMK A01 T03990155  RH  024%=      5-min Rain = 0
KPD3 112153Z 22009KT 40/16 A299 RMK A01 T03990155  RH  024%=      5-min Rain = 0
KPD3 112154Z 22010KT 40/16 A299 RMK A01 T03990156  RH  024%=      5-min Rain = 0
KPD3 112155Z 24007KT 40/16 A299 RMK A01 T04000155  RH  024%=      5-min Rain = 0
KPD3 112156Z 23007KT 40/16 A299 RMK A01 T04000157  RH  024%=      5-min Rain = 0
KPD3 112157Z 17004KT 40/16 A299 RMK A01 T04000155  RH  024%=      5-min Rain = 0
KPD3 112158Z 15009KT 40/16 A299 RMK A01 T04020156  RH  024%=      5-min Rain = 0
KPD3 112159Z 14008KT 40/16 A2989 RMK A01 T04040156  RH  023%=      5-min Rain = 0
KPD3 112200Z 16013KT 41/16 A2989 RMK A01 T04060156  RH  023%=      5-min Rain = 0
KPD3 112201Z 16010G15KT 41/16 A2989 RMK A01 T04070155  RH  023%=      5-min Rain = 0
KPD3 112202Z 17014KT 41/15 A2989 RMK A01 T04060154  RH  023%=      5-min Rain = 0
KPD3 112203Z 16013KT 40/15 A2989 RMK A01 T04040154  RH  023%=      5-min Rain = 0
KPD3 112204Z 17011KT 40/15 A2989 RMK A01 T04010152  RH  023%=      5-min Rain = 0
KPD3 112205Z 17011KT 40/15 A2989 RMK A01 T03990153  RH  024%=      5-min Rain = 0
KPD3 112206Z 16009KT 40/15 A2989 RMK A01 T03990153  RH  024%=      5-min Rain = 0
KPD3 112207Z 16011KT 40/15 A2989 RMK A01 T03980152  RH  024%=      5-min Rain = 0
KPD3 112208Z 15011KT 40/15 A2989 RMK A01 T03950151  RH  024%=      5-min Rain = 0
KPD3 112209Z 15009KT 39/15 A2989 RMK A01 T03920151  RH  024%=      5-min Rain = 0
KPD3 112210Z 15012KT 39/15 A2989 RMK A01 T03910151  RH  024%=      5-min Rain = 0
KPD3 112211Z 15010KT 39/15 A2989 RMK A01 T03880151  RH  025%=      5-min Rain = 0
KPD3 112212Z 16009KT 39/15 A2989 RMK A01 T03860151  RH  025%=      5-min Rain = 0
KPD3 112213Z 16007KT 39/15 A2989 RMK A01 T03860151  RH  025%=      5-min Rain = 0
KPD3 112214Z 15009KT 39/15 A2989 RMK A01 T03860151  RH  025%=      5-min Rain = 0
KPD3 112215Z 15010KT 39/15 A2989 RMK A01 T03880151  RH  025%=      5-min Rain = 0
KPD3 112216Z 15008KT 39/15 A2989 RMK A01 T03890151  RH  025%=      5-min Rain = 0
KPD3 112217Z 18007KT 39/15 A2989 RMK A01 T03930154  RH  025%=      5-min Rain = 0
KPD3 112218Z 20006KT 40/16 A2989 RMK A01 T03990156  RH  024%=      5-min Rain = 0
KPD3 112219Z 18009KT 40/16 A2989 RMK A01 T04020155  RH  024%=      5-min Rain = 0
KPD3 112220Z 19009G16KT 40/15 A2989 RMK A01 T04040154  RH  023%=      5-min Rain = 0
KPD3 112221Z 20011KT 40/15 A2989 RMK A01 T04010153  RH  023%=      5-min Rain = 0
KPD3 112222Z 16014KT 40/15 A2989 RMK A01 T03970151  RH  024%=      5-min Rain = 0
KPD3 112223Z 16014KT 40/15 A2989 RMK A01 T03960152  RH  024%=      5-min Rain = 0
KPD3 112224Z 16014KT 40/15 A2989 RMK A01 T03980153  RH  024%=      5-min Rain = 0
KPD3 112225Z 15009KT 40/15 A2988 RMK A01 T04010154  RH  024%=      5-min Rain = 0
KPD3 112226Z 16012KT 41/15 A2988 RMK A01 T04060154  RH  023%=      5-min Rain = 0
KPD3 112227Z 18012KT 41/15 A2988 RMK A01 T04060151  RH  023%=      5-min Rain = 0
KPD3 112228Z 16009KT 41/15 A2988 RMK A01 T04060151  RH  022%=      5-min Rain = 0
KPD3 112229Z 18011KT 41/15 A2988 RMK A01 T04070151  RH  022%=      5-min Rain = 0
KPD3 112230Z 19013KT 41/15 A2988 RMK A01 T04060154  RH  023%=      5-min Rain = 0
KPD3 112231Z 21014G19KT 41/15 A2988 RMK A01 T04050154  RH  023%=      5-min Rain = 0
KPD3 112232Z 20010KT 40/15 A2988 RMK A01 T04030153  RH  023%=      5-min Rain = 0
KPD3 112233Z 18011KT 40/15 A2988 RMK A01 T04030153  RH  023%=      5-min Rain = 0
KPD3 112234Z 19011KT 40/15 A2988 RMK A01 T04040153  RH  023%=      5-min Rain = 0
KPD3 112235Z 19012KT 41/15 A2988 RMK A01 T04060153  RH  023%=      5-min Rain = 0
KPD3 112236Z 21014KT 41/15 A2988 RMK A01 T04050153  RH  023%=      5-min Rain = 0
KPD3 112237Z 20013KT 41/15 A2988 RMK A01 T04050151  RH  023%=      5-min Rain = 0
KPD3 112238Z 20014KT 40/15 A2988 RMK A01 T04020151  RH  023%=      5-min Rain = 0
KPD3 112239Z 19010KT 40/15 A2988 RMK A01 T04020151  RH  023%=      5-min Rain = 0
KPD3 112240Z 17009KT 40/15 A2988 RMK A01 T04010151  RH  023%=      5-min Rain = 0
KPD3 112241Z 17007KT 40/15 A2988 RMK A01 T04020152  RH  023%=      5-min Rain = 0
KPD3 112242Z 19009KT 40/15 A2988 RMK A01 T04030151  RH  023%=      5-min Rain = 0
KPD3 112243Z 18010KT 40/15 A2988 RMK A01 T04020150  RH  023%=      5-min Rain = 0
KPD3 112244Z 19010KT 40/15 A2988 RMK A01 T04000150  RH  023%=      5-min Rain = 0
KPD3 112245Z 19011G17KT 40/15 A2988 RMK A01 T03970149  RH  023%=      5-min Rain = 0
KPD3 112246Z 19013KT 39/15 A2988 RMK A01 T03940150  RH  024%=      5-min Rain = 0
KPD3 112247Z 17014KT 39/15 A2988 RMK A01 T03930149  RH  024%=      5-min Rain = 0
KPD3 112248Z 16014KT 39/15 A2988 RMK A01 T03940149  RH  024%=      5-min Rain = 0
KPD3 112249Z 16017KT 40/15 A2988 RMK A01 T03980151  RH  024%=      5-min Rain = 0
KPD3 112250Z 16015KT 40/15 A2988 RMK A01 T04010150  RH  023%=      5-min Rain = 0
KPD3 112251Z 16010KT 40/15 A2988 RMK A01 T04000149  RH  023%=      5-min Rain = 0
KPD3 112252Z 16013G20KT 40/15 A2988 RMK A01 T03980150  RH  023%=      5-min Rain = 0
KPD3 112253Z 18015KT 40/15 A2988 RMK A01 T04010151  RH  023%=      5-min Rain = 0
KPD3 112254Z 17015KT 40/15 A2988 RMK A01 T04030151  RH  023%=      5-min Rain = 0
KPD3 112255Z 17016KT 40/15 A2988 RMK A01 T04010150  RH  023%=      5-min Rain = 0
KPD3 112256Z 17014KT 40/15 A2988 RMK A01 T03990150  RH  023%=      5-min Rain = 0
KPD3 112257Z 17013KT 40/15 A2988 RMK A01 T03980150  RH  023%=      5-min Rain = 0
KPD3 112258Z 17012KT 40/15 A2988 RMK A01 T03970150  RH  023%=      5-min Rain = 0
KPD3 112259Z 16013KT 40/15 A2988 RMK A01 T03990151  RH  023%=      5-min Rain = 0
KPD3 112300Z 16017G22KT 40/15 A2988 RMK A01 T04020152  RH  023%=      5-min Rain = 0
KPD3 112301Z 15020KT 40/15 A2988 RMK A01 T04030151  RH  023%=      5-min Rain = 0
KPD3 112302Z 15019G24KT 40/15 A2988 RMK A01 T04000149  RH  023%=      5-min Rain = 0
KPD3 112303Z 15015KT 40/15 A2988 RMK A01 T03970149  RH  023%=      5-min Rain = 0
KPD3 112304Z 15017KT 40/15 A2988 RMK A01 T03950149  RH  024%=      5-min Rain = 0
KPD3 112305Z 16015KT 39/15 A2988 RMK A01 T03940150  RH  024%=      5-min Rain = 0
KPD3 112306Z 16010KT 39/15 A2988 RMK A01 T03930149  RH  024%=      5-min Rain = 0
KPD3 112307Z 15008KT 40/15 A2988 RMK A01 T03950151  RH  024%=      5-min Rain = 0
KPD3 112308Z 15010KT 40/15 A2988 RMK A01 T03970150  RH  023%=      5-min Rain = 0
KPD3 112309Z 15011G16KT 40/15 A2987 RMK A01 T03970150  RH  023%=      5-min Rain = 0
KPD3 112310Z 15016KT 40/15 A2987 RMK A01 T03970149  RH  023%=      5-min Rain = 0
KPD3 112311Z 15016KT 40/15 A2987 RMK A01 T03960149  RH  023%=      5-min Rain = 0
KPD3 112312Z 15014KT 40/15 A2987 RMK A01 T03960149  RH  023%=      5-min Rain = 0
KPD3 112313Z 15011KT 40/15 A2987 RMK A01 T03960149  RH  023%=      5-min Rain = 0
KPD3 112314Z 16013KT 40/15 A2987 RMK A01 T03980150  RH  023%=      5-min Rain = 0
KPD3 112315Z 15014KT 40/15 A2987 RMK A01 T04000150  RH  023%=      5-min Rain = 0
KPD3 112316Z 15013KT 40/15 A2987 RMK A01 T04000150  RH  023%=      5-min Rain = 0
KPD3 112317Z 15012KT 40/15 A2987 RMK A01 T04000151  RH  023%=      5-min Rain = 0
KPD3 112318Z 15013KT 40/15 A2987 RMK A01 T04000151  RH  023%=      5-min Rain = 0
KPD3 112319Z 16012KT 40/15 A2987 RMK A01 T04020151  RH  023%=      5-min Rain = 0
KPD3 112320Z 16012KT 40/15 A2987 RMK A01 T04010151  RH  023%=      5-min Rain = 0
KPD3 112321Z 17015KT 40/15 A2987 RMK A01 T03980151  RH  023%=      5-min Rain = 0
KPD3 112322Z 17017KT 40/15 A2987 RMK A01 T03980150  RH  023%=      5-min Rain = 0
KPD3 112323Z 17015KT 40/15 A2987 RMK A01 T03960150  RH  023%=      5-min Rain = 0
KPD3 112324Z 17013KT 40/15 A2987 RMK A01 T03960150  RH  024%=      5-min Rain = 0
KPD3 112325Z 17010KT 40/15 A2987 RMK A01 T03950149  RH  024%=      5-min Rain = 0
KPD3 112326Z 17016KT 39/15 A2987 RMK A01 T03940150  RH  024%=      5-min Rain = 0
KPD3 112327Z 16016KT 40/15 A2987 RMK A01 T03960149  RH  023%=      5-min Rain = 0
KPD3 112328Z 16015KT 39/15 A2987 RMK A01 T03940148  RH  024%=      5-min Rain = 0
KPD3 112329Z 16016KT 39/15 A2987 RMK A01 T03900147  RH  024%=      5-min Rain = 0
KPD3 112330Z 16015KT 39/15 A2987 RMK A01 T03860147  RH  024%=      5-min Rain = 0
KPD3 112331Z 16016KT 38/15 A2987 RMK A01 T03840147  RH  025%=      5-min Rain = 0
KPD3 112332Z 16016KT 39/15 A2987 RMK A01 T03850148  RH  025%=      5-min Rain = 0
KPD3 112333Z 16014KT 39/15 A2987 RMK A01 T03860148  RH  025%=      5-min Rain = 0
KPD3 112334Z 15014KT 39/15 A2987 RMK A01 T03870149  RH  025%=      5-min Rain = 0
KPD3 112335Z 16014KT 39/15 A2987 RMK A01 T03850147  RH  025%=      5-min Rain = 0
KPD3 112336Z 15013G18KT 38/15 A2987 RMK A01 T03820147  RH  025%=      5-min Rain = 0
KPD3 112337Z 16016KT 38/15 A2987 RMK A01 T03810147  RH  025%=      5-min Rain = 0
KPD3 112338Z 16013KT 38/15 A2987 RMK A01 T03800147  RH  025%=      5-min Rain = 0
KPD3 112339Z 16011KT 38/15 A2987 RMK A01 T03790147  RH  025%=      5-min Rain = 0
KPD3 112340Z 15016KT 38/15 A2987 RMK A01 T03790147  RH  025%=      5-min Rain = 0
KPD3 112341Z 15013KT 38/15 A2987 RMK A01 T03790147  RH  025%=      5-min Rain = 0
KPD3 112342Z 16016KT 38/15 A2987 RMK A01 T03790147  RH  025%=      5-min Rain = 0
KPD3 112343Z 16015KT 38/15 A2987 RMK A01 T03790146  RH  025%=      5-min Rain = 0
KPD3 112344Z 16014KT 38/15 A2987 RMK A01 T03790146  RH  025%=      5-min Rain = 0
KPD3 112345Z 16013KT 38/15 A2987 RMK A01 T03800146  RH  025%=      5-min Rain = 0
KPD3 112346Z 14014KT 38/15 A2987 RMK A01 T03810147  RH  025%=      5-min Rain = 0
KPD3 112347Z 14015KT 38/15 A2987 RMK A01 T03810146  RH  025%=      5-min Rain = 0
KPD3 112348Z 14013KT 38/15 A2987 RMK A01 T03790146  RH  025%=      5-min Rain = 0
KPD3 112349Z 15011KT 38/15 A2987 RMK A01 T03780146  RH  025%=      5-min Rain = 0
KPD3 112350Z 16015KT 38/15 A2987 RMK A01 T03780145  RH  025%=      5-min Rain = 0
KPD3 112351Z 16016KT 38/15 A2987 RMK A01 T03790145  RH  025%=      5-min Rain = 0
KPD3 112352Z 16012KT 38/15 A2987 RMK A01 T03810145  RH  025%=      5-min Rain = 0
KPD3 112353Z 14012KT 38/15 A2987 RMK A01 T03800145  RH  025%=      5-min Rain = 0
KPD3 112354Z 15011KT 38/15 A2987 RMK A01 T03800145  RH  025%=      5-min Rain = 0
KPD3 112355Z 16012KT 38/14 A2987 RMK A01 T03790144  RH  025%=      5-min Rain = 0
KPD3 112356Z 16015KT 38/15 A2987 RMK A01 T03790145  RH  025%=      5-min Rain = 0
KPD3 112357Z 15015G20KT 38/15 A2987 RMK A01 T03800145  RH  025%=      5-min Rain = 0
KPD3 112358Z 15016KT 38/14 A2987 RMK A01 T03810144  RH  025%=      5-min Rain = 0
KPD3 112359Z 15016KT 38/14 A2987 RMK A01 T03830144  RH  024%=      5-min Rain = 0
KPD3 120000Z 16018KT 38/14 A2987 RMK A01 T03840144  RH  024%=      5-min Rain = 0
KPD3 120001Z 16017KT 38/14 A2987 RMK A01 T03840143  RH  024%=      5-min Rain = 0
KPD3 120002Z 15013KT 38/14 A2987 RMK A01 T03840144  RH  024%=      5-min Rain = 0
KPD3 120003Z 15013KT 39/14 A2987 RMK A01 T03850144  RH  024%=      5-min Rain = 0
KPD3 120004Z 14014KT 39/14 A2987 RMK A01 T03850144  RH  024%=      5-min Rain = 0
KPD3 120005Z 15018KT 39/14 A2987 RMK A01 T03860144  RH  024%=      5-min Rain = 0
KPD3 120006Z 16015KT 39/14 A2987 RMK A01 T03860143  RH  024%=      5-min Rain = 0
KPD3 120007Z 16014G19KT 39/14 A2987 RMK A01 T03850143  RH  024%=      5-min Rain = 0
KPD3 120008Z 16013KT 39/14 A2987 RMK A01 T03850143  RH  024%=      5-min Rain = 0
KPD3 120009Z 15013KT 39/14 A2987 RMK A01 T03860143  RH  024%=      5-min Rain = 0
KPD3 120010Z 15013G18KT 39/14 A2987 RMK A01 T03860143  RH  024%=      5-min Rain = 0
KPD3 120011Z 15016KT 39/14 A2987 RMK A01 T03860143  RH  024%=      5-min Rain = 0
KPD3 120012Z 15017KT 39/14 A2987 RMK A01 T03850142  RH  024%=      5-min Rain = 0
KPD3 120013Z 16016KT 38/14 A2987 RMK A01 T03840142  RH  024%=      5-min Rain = 0
KPD3 120014Z 16015KT 38/14 A2987 RMK A01 T03840141  RH  024%=      5-min Rain = 0
KPD3 120015Z 15012KT 38/14 A2987 RMK A01 T03830142  RH  024%=      5-min Rain = 0
KPD3 120016Z 16013KT 38/14 A2987 RMK A01 T03830142  RH  024%=      5-min Rain = 0
KPD3 120017Z 17016KT 38/14 A2987 RMK A01 T03830141  RH  024%=      5-min Rain = 0
KPD3 120018Z 17014KT 38/14 A2987 RMK A01 T03830141  RH  024%=      5-min Rain = 0
KPD3 120019Z 17013KT 38/14 A2987 RMK A01 T03820141  RH  024%=      5-min Rain = 0
KPD3 120020Z 17015KT 38/14 A2987 RMK A01 T03820141  RH  024%=      5-min Rain = 0
KPD3 120021Z 16016KT 38/14 A2987 RMK A01 T03820141  RH  024%=      5-min Rain = 0
KPD3 120022Z 17014KT 38/14 A2987 RMK A01 T03820140  RH  024%=      5-min Rain = 0
KPD3 120023Z 15013KT 38/14 A2987 RMK A01 T03810140  RH  024%=      5-min Rain = 0
KPD3 120024Z 15014KT 38/14 A2987 RMK A01 T03810140  RH  024%=      5-min Rain = 0
KPD3 120025Z 15013KT 38/14 A2987 RMK A01 T03810139  RH  024%=      5-min Rain = 0
KPD3 120026Z 16011KT 38/14 A2987 RMK A01 T03810140  RH  024%=      5-min Rain = 0
KPD3 120027Z 16014KT 38/14 A2987 RMK A01 T03810140  RH  024%=      5-min Rain = 0
KPD3 120028Z 16015KT 38/14 A2987 RMK A01 T03810139  RH  024%=      5-min Rain = 0
KPD3 120029Z 16016KT 38/14 A2987 RMK A01 T03810139  RH  024%=      5-min Rain = 0
KPD3 120030Z 16014KT 38/14 A2987 RMK A01 T03790138  RH  024%=      5-min Rain = 0
KPD3 120031Z 16014KT 38/14 A2988 RMK A01 T03770137  RH  024%=      5-min Rain = 0
KPD3 120032Z 15013G18KT 38/14 A2988 RMK A01 T03750137  RH  024%=      5-min Rain = 0
KPD3 120033Z 15015KT 37/14 A2988 RMK A01 T03740136  RH  024%=      5-min Rain = 0
KPD3 120034Z 14015KT 37/14 A2988 RMK A01 T03730136  RH  024%=      5-min Rain = 0
KPD3 120035Z 15016KT 37/14 A2988 RMK A01 T03730136  RH  024%=      5-min Rain = 0
KPD3 120036Z 14013KT 37/14 A2988 RMK A01 T03720136  RH  024%=      5-min Rain = 0
KPD3 120037Z 14013KT 37/14 A2988 RMK A01 T03720136  RH  025%=      5-min Rain = 0
KPD3 120038Z 15013KT 37/14 A2988 RMK A01 T03710136  RH  025%=      5-min Rain = 0
KPD3 120039Z 15014KT 37/14 A2988 RMK A01 T03700136  RH  025%=      5-min Rain = 0
KPD3 120040Z 15014KT 37/14 A2988 RMK A01 T03700136  RH  025%=      5-min Rain = 0
KPD3 120041Z 15013KT 37/14 A2988 RMK A01 T03690135  RH  025%=      5-min Rain = 0
KPD3 120042Z 16011KT 37/14 A2988 RMK A01 T03690136  RH  025%=      5-min Rain = 0
KPD3 120043Z 15013KT 37/14 A2988 RMK A01 T03690136  RH  025%=      5-min Rain = 0
KPD3 120044Z 16013KT 37/14 A2988 RMK A01 T03680135  RH  025%=      5-min Rain = 0
KPD3 120045Z 16014KT 37/14 A2988 RMK A01 T03680135  RH  025%=      5-min Rain = 0
KPD3 120046Z 16012KT 37/13 A2988 RMK A01 T03680134  RH  025%=      5-min Rain = 0
KPD3 120047Z 16011KT 37/13 A2988 RMK A01 T03680134  RH  025%=      5-min Rain = 0
KPD3 120048Z 16011KT 37/13 A2988 RMK A01 T03670134  RH  025%=      5-min Rain = 0
KPD3 120049Z 16010KT 37/13 A2988 RMK A01 T03670134  RH  025%=      5-min Rain = 0
KPD3 120050Z 15010KT 37/13 A2988 RMK A01 T03650134  RH  025%=      5-min Rain = 0
KPD3 120051Z 16011KT 36/13 A2988 RMK A01 T03640134  RH  025%=      5-min Rain = 0
KPD3 120052Z 16012KT 36/13 A2988 RMK A01 T03640134  RH  025%=      5-min Rain = 0
KPD3 120053Z 16011KT 36/13 A2988 RMK A01 T03640133  RH  025%=      5-min Rain = 0
KPD3 120054Z 15010KT 36/13 A2988 RMK A01 T03640134  RH  025%=      5-min Rain = 0
KPD3 120055Z 15011KT 36/13 A2988 RMK A01 T03640134  RH  025%=      5-min Rain = 0
KPD3 120056Z 16011KT 36/13 A2988 RMK A01 T03630133  RH  025%=      5-min Rain = 0
KPD3 120057Z 16012KT 36/13 A2988 RMK A01 T03630133  RH  025%=      5-min Rain = 0
KPD3 120058Z 15014KT 36/13 A2988 RMK A01 T03630133  RH  025%=      5-min Rain = 0
KPD3 120059Z 15012KT 36/13 A2988 RMK A01 T03640133  RH  025%=      5-min Rain = 0
KPD3 120100Z 15011KT 36/13 A2988 RMK A01 T03640133  RH  025%=      5-min Rain = 0
KPD3 120101Z 15010KT 36/13 A2988 RMK A01 T03640133  RH  025%=      5-min Rain = 0
KPD3 120102Z 16012KT 36/13 A2988 RMK A01 T03630133  RH  025%=      5-min Rain = 0
KPD3 120103Z 16010KT 36/13 A2988 RMK A01 T03630133  RH  025%=      5-min Rain = 0
KPD3 120104Z 16011KT 36/13 A2989 RMK A01 T03620133  RH  025%=      5-min Rain = 0
KPD3 120105Z 15014KT 36/13 A2989 RMK A01 T03620133  RH  025%=      5-min Rain = 0
KPD3 120106Z 16012KT 36/13 A2989 RMK A01 T03620133  RH  025%=      5-min Rain = 0
KPD3 120107Z 15013KT 36/13 A2989 RMK A01 T03620133  RH  025%=      5-min Rain = 0
KPD3 120108Z 15012KT 36/13 A2989 RMK A01 T03620133  RH  025%=      5-min Rain = 0
KPD3 120109Z 15011KT 36/13 A2989 RMK A01 T03620133  RH  025%=      5-min Rain = 0
KPD3 120110Z 15010KT 36/13 A2989 RMK A01 T03610133  RH  026%=      5-min Rain = 0
KPD3 120111Z 15011KT 36/13 A2989 RMK A01 T03600133  RH  026%=      5-min Rain = 0
KPD3 120112Z 16011KT 36/13 A2989 RMK A01 T03590133  RH  026%=      5-min Rain = 0
KPD3 120113Z 15010KT 36/13 A2989 RMK A01 T03600134  RH  026%=      5-min Rain = 0
KPD3 120114Z 15010KT 36/13 A2989 RMK A01 T03590133  RH  026%=      5-min Rain = 0
KPD3 120115Z 15010KT 36/13 A2989 RMK A01 T03570133  RH  026%=      5-min Rain = 0
KPD3 120116Z 16010KT 36/13 A2989 RMK A01 T03560133  RH  026%=      5-min Rain = 0
KPD3 120117Z 16011KT 36/13 A2989 RMK A01 T03560134  RH  026%=      5-min Rain = 0
KPD3 120118Z 15010KT 36/13 A2989 RMK A01 T03550134  RH  026%=      5-min Rain = 0
KPD3 120119Z 15011KT 36/13 A2989 RMK A01 T03550134  RH  027%=      5-min Rain = 0
KPD3 120120Z 15010KT 35/13 A2989 RMK A01 T03540133  RH  027%=      5-min Rain = 0
KPD3 120121Z 15011KT 35/13 A2989 RMK A01 T03540134  RH  027%=      5-min Rain = 0
KPD3 120122Z 15011KT 35/13 A2989 RMK A01 T03540134  RH  027%=      5-min Rain = 0
KPD3 120123Z 15011KT 35/13 A2989 RMK A01 T03540134  RH  027%=      5-min Rain = 0
KPD3 120124Z 15011KT 35/13 A2989 RMK A01 T03530134  RH  027%=      5-min Rain = 0
KPD3 120125Z 15011KT 35/13 A2989 RMK A01 T03530134  RH  027%=      5-min Rain = 0
KPD3 120126Z 15010KT 35/13 A2989 RMK A01 T03530134  RH  027%=      5-min Rain = 0
KPD3 120127Z 16009KT 35/13 A2989 RMK A01 T03520134  RH  027%=      5-min Rain = 0
KPD3 120128Z 16011KT 35/13 A2989 RMK A01 T03510134  RH  027%=      5-min Rain = 0
KPD3 120129Z 15010KT 35/13 A2989 RMK A01 T03510134  RH  027%=      5-min Rain = 0
KPD3 120130Z 16011KT 35/13 A2989 RMK A01 T03510134  RH  027%=      5-min Rain = 0
KPD3 120131Z 16011KT 35/13 A2989 RMK A01 T03510134  RH  027%=      5-min Rain = 0
KPD3 120132Z 16011KT 35/13 A2989 RMK A01 T03510134  RH  027%=      5-min Rain = 0
KPD3 120133Z 15010KT 35/13 A2989 RMK A01 T03510134  RH  027%=      5-min Rain = 0
KPD3 120134Z 16011KT 35/13 A2989 RMK A01 T03500133  RH  027%=      5-min Rain = 0
KPD3 120135Z 16011KT 35/13 A2989 RMK A01 T03500133  RH  027%=      5-min Rain = 0
KPD3 120136Z 16011KT 35/13 A2989 RMK A01 T03500133  RH  027%=      5-min Rain = 0
KPD3 120137Z 16011KT 35/13 A2989 RMK A01 T03490133  RH  027%=      5-min Rain = 0
KPD3 120138Z 16010KT 35/13 A2989 RMK A01 T03500133  RH  027%=      5-min Rain = 0
KPD3 120139Z 16010KT 35/13 A299 RMK A01 T03490134  RH  027%=      5-min Rain = 0
KPD3 120140Z 16010KT 35/13 A299 RMK A01 T03480134  RH  028%=      5-min Rain = 0
KPD3 120141Z 16010KT 35/13 A299 RMK A01 T03480134  RH  028%=      5-min Rain = 0
KPD3 120142Z 16011KT 35/13 A299 RMK A01 T03470134  RH  028%=      5-min Rain = 0
KPD3 120143Z 16011KT 35/13 A299 RMK A01 T03470134  RH  028%=      5-min Rain = 0
KPD3 120144Z 16011KT 35/13 A299 RMK A01 T03460134  RH  028%=      5-min Rain = 0
KPD3 120145Z 16010KT 35/14 A299 RMK A01 T03460135  RH  028%=      5-min Rain = 0
KPD3 120146Z 16011KT 35/14 A299 RMK A01 T03460135  RH  028%=      5-min Rain = 0
KPD3 120147Z 16011KT 35/14 A299 RMK A01 T03460135  RH  028%=      5-min Rain = 0
KPD3 120148Z 16010KT 35/14 A299 RMK A01 T03450135  RH  028%=      5-min Rain = 0
KPD3 120149Z 16012KT 35/14 A299 RMK A01 T03450135  RH  028%=      5-min Rain = 0
KPD3 120150Z 16011KT 35/14 A299 RMK A01 T03460136  RH  028%=      5-min Rain = 0
KPD3 120151Z 16010KT 35/14 A299 RMK A01 T03450136  RH  028%=      5-min Rain = 0
KPD3 120152Z 16010KT 35/14 A299 RMK A01 T03450136  RH  028%=      5-min Rain = 0
KPD3 120153Z 16010KT 34/14 A299 RMK A01 T03440136  RH  029%=      5-min Rain = 0
KPD3 120154Z 16010KT 34/14 A299 RMK A01 T03440136  RH  029%=      5-min Rain = 0
KPD3 120155Z 16010KT 34/14 A299 RMK A01 T03430135  RH  029%=      5-min Rain = 0
KPD3 120156Z 16010KT 34/14 A299 RMK A01 T03420136  RH  029%=      5-min Rain = 0
KPD3 120157Z 16010KT 34/14 A299 RMK A01 T03420136  RH  029%=      5-min Rain = 0
KPD3 120158Z 16009KT 34/14 A2991 RMK A01 T03410136  RH  029%=      5-min Rain = 0
KPD3 120159Z 16009KT 34/14 A2991 RMK A01 T03400136  RH  029%=      5-min Rain = 0
KPD3 120200Z 16008KT 34/14 A2991 RMK A01 T03390136  RH  029%=      5-min Rain = 0
KPD3 120201Z 16008KT 34/14 A2991 RMK A01 T03370135  RH  030%=      5-min Rain = 0
KPD3 120202Z 16009KT 34/14 A2991 RMK A01 T03360135  RH  030%=      5-min Rain = 0
KPD3 120203Z 16008KT 34/14 A2991 RMK A01 T03350135  RH  030%=      5-min Rain = 0
KPD3 120204Z 16008KT 33/14 A2991 RMK A01 T03340135  RH  030%=      5-min Rain = 0
KPD3 120205Z 16008KT 33/14 A2991 RMK A01 T03330135  RH  030%=      5-min Rain = 0
KPD3 120206Z 16008KT 33/14 A2991 RMK A01 T03330135  RH  030%=      5-min Rain = 0
KPD3 120207Z 16007KT 33/14 A2991 RMK A01 T03320135  RH  030%=      5-min Rain = 0
KPD3 120208Z 17008KT 33/14 A2991 RMK A01 T03310136  RH  031%=      5-min Rain = 0
KPD3 120209Z 17007KT 33/14 A2991 RMK A01 T03300135  RH  031%=      5-min Rain = 0
KPD3 120210Z 16007KT 33/14 A2991 RMK A01 T03290135  RH  031%=      5-min Rain = 0
KPD3 120211Z 16007KT 33/14 A2991 RMK A01 T03280135  RH  031%=      5-min Rain = 0
KPD3 120212Z 16007KT 33/14 A2991 RMK A01 T03270135  RH  031%=      5-min Rain = 0
KPD3 120213Z 16007KT 33/14 A2991 RMK A01 T03270135  RH  031%=      5-min Rain = 0
KPD3 120214Z 17007KT 33/14 A2991 RMK A01 T03260135  RH  031%=      5-min Rain = 0
KPD3 120215Z 17007KT 33/14 A2991 RMK A01 T03250135  RH  032%=      5-min Rain = 0
KPD3 120216Z 16007KT 32/14 A2991 RMK A01 T03240135  RH  032%=      5-min Rain = 0
KPD3 120217Z 17007KT 32/13 A2991 RMK A01 T03230134  RH  032%=      5-min Rain = 0
KPD3 120218Z 17008KT 32/13 A2992 RMK A01 T03220134  RH  032%=      5-min Rain = 0
KPD3 120219Z 17008KT 32/13 A2992 RMK A01 T03220134  RH  032%=      5-min Rain = 0
KPD3 120220Z 17008KT 32/14 A2992 RMK A01 T03230135  RH  032%=      5-min Rain = 0
KPD3 120221Z 17008KT 32/13 A2992 RMK A01 T03240134  RH  032%=      5-min Rain = 0
KPD3 120222Z 17008KT 32/13 A2992 RMK A01 T03240134  RH  032%=      5-min Rain = 0
KPD3 120223Z 17007KT 32/13 A2992 RMK A01 T03230134  RH  032%=      5-min Rain = 0
KPD3 120224Z 17007KT 32/13 A2992 RMK A01 T03230134  RH  032%=      5-min Rain = 0
KPD3 120225Z 17007KT 32/13 A2992 RMK A01 T03220134  RH  032%=      5-min Rain = 0
KPD3 120226Z 16007KT 32/13 A2992 RMK A01 T03220134  RH  032%=      5-min Rain = 0
KPD3 120227Z 17008KT 32/13 A2992 RMK A01 T03210134  RH  032%=      5-min Rain = 0
KPD3 120228Z 17007KT 32/13 A2992 RMK A01 T03200133  RH  032%=      5-min Rain = 0
KPD3 120229Z 17008KT 32/13 A2992 RMK A01 T03190133  RH  032%=      5-min Rain = 0
KPD3 120230Z 16008KT 32/13 A2992 RMK A01 T03180133  RH  032%=      5-min Rain = 0
KPD3 120231Z 16008KT 32/13 A2992 RMK A01 T03180133  RH  032%=      5-min Rain = 0
KPD3 120232Z 16008KT 32/13 A2992 RMK A01 T03170133  RH  033%=      5-min Rain = 0
KPD3 120233Z 16008KT 32/13 A2993 RMK A01 T03170133  RH  033%=      5-min Rain = 0
KPD3 120234Z 16009KT 32/13 A2993 RMK A01 T03180133  RH  032%=      5-min Rain = 0
KPD3 120235Z 16009KT 32/13 A2993 RMK A01 T03190133  RH  032%=      5-min Rain = 0
KPD3 120236Z 17008KT 32/13 A2993 RMK A01 T03200133  RH  032%=      5-min Rain = 0
KPD3 120237Z 16008KT 32/13 A2993 RMK A01 T03210133  RH  032%=      5-min Rain = 0
KPD3 120238Z 16008KT 32/13 A2993 RMK A01 T03210133  RH  032%=      5-min Rain = 0
KPD3 120239Z 17008KT 32/13 A2993 RMK A01 T03200133  RH  032%=      5-min Rain = 0
KPD3 120240Z 16008KT 32/13 A2993 RMK A01 T03190132  RH  032%=      5-min Rain = 0
KPD3 120241Z 16008KT 32/13 A2993 RMK A01 T03190132  RH  032%=      5-min Rain = 0
KPD3 120242Z 16008KT 32/13 A2993 RMK A01 T03190133  RH  032%=      5-min Rain = 0
KPD3 120243Z 16008KT 32/13 A2993 RMK A01 T03180132  RH  032%=      5-min Rain = 0
KPD3 120244Z 16008KT 32/13 A2993 RMK A01 T03170132  RH  032%=      5-min Rain = 0
KPD3 120245Z 16008KT 32/13 A2993 RMK A01 T03160132  RH  033%=      5-min Rain = 0
KPD3 120246Z 16008KT 32/13 A2993 RMK A01 T03150132  RH  033%=      5-min Rain = 0
KPD3 120247Z 16008KT 32/13 A2993 RMK A01 T03150132  RH  033%=      5-min Rain = 0
KPD3 120248Z 16008KT 32/13 A2993 RMK A01 T03150132  RH  033%=      5-min Rain = 0
KPD3 120249Z 16008KT 32/13 A2993 RMK A01 T03150132  RH  033%=      5-min Rain = 0
KPD3 120250Z 16008KT 32/13 A2993 RMK A01 T03150132  RH  033%=      5-min Rain = 0
KPD3 120251Z 17008KT 32/13 A2993 RMK A01 T03150132  RH  033%=      5-min Rain = 0
KPD3 120252Z 17008KT 31/13 A2993 RMK A01 T03140132  RH  033%=      5-min Rain = 0
KPD3 120253Z 16008KT 31/13 A2993 RMK A01 T03130132  RH  033%=      5-min Rain = 0
KPD3 120254Z 16007KT 31/13 A2993 RMK A01 T03130132  RH  033%=      5-min Rain = 0
KPD3 120255Z 16007KT 31/13 A2994 RMK A01 T03120131  RH  033%=      5-min Rain = 0
KPD3 120256Z 16007KT 31/13 A2994 RMK A01 T03110132  RH  033%=      5-min Rain = 0
KPD3 120257Z 17007KT 31/13 A2994 RMK A01 T03100131  RH  034%=      5-min Rain = 0
KPD3 120258Z 17006KT 31/13 A2994 RMK A01 T03090131  RH  034%=      5-min Rain = 0
KPD3 120259Z 17006KT 31/13 A2994 RMK A01 T03070131  RH  034%=      5-min Rain = 0
KPD3 120300Z 17006KT 31/13 A2994 RMK A01 T03060131  RH  034%=      5-min Rain = 0
KPD3 120301Z 17006KT 31/13 A2994 RMK A01 T03050131  RH  034%=      5-min Rain = 0
KPD3 120302Z 17006KT 30/13 A2994 RMK A01 T03040131  RH  035%=      5-min Rain = 0
KPD3 120303Z 17006KT 30/13 A2994 RMK A01 T03030130  RH  035%=      5-min Rain = 0
KPD3 120304Z 17006KT 30/13 A2994 RMK A01 T03010130  RH  035%=      5-min Rain = 0
KPD3 120305Z 17006KT 30/13 A2994 RMK A01 T03000130  RH  035%=      5-min Rain = 0
KPD3 120306Z 17007KT 30/13 A2994 RMK A01 T02990130  RH  035%=      5-min Rain = 0
KPD3 120307Z 16006KT 30/13 A2994 RMK A01 T02980130  RH  036%=      5-min Rain = 0
KPD3 120308Z 17006KT 30/13 A2994 RMK A01 T02970130  RH  036%=      5-min Rain = 0
KPD3 120309Z 17007KT 30/13 A2994 RMK A01 T02960130  RH  036%=      5-min Rain = 0
KPD3 120310Z 17007KT 30/13 A2994 RMK A01 T02950130  RH  036%=      5-min Rain = 0
KPD3 120311Z 17006KT 30/13 A2994 RMK A01 T02950130  RH  036%=      5-min Rain = 0
KPD3 120312Z 17006KT 29/13 A2994 RMK A01 T02940130  RH  036%=      5-min Rain = 0
KPD3 120313Z 18007KT 29/13 A2994 RMK A01 T02930130  RH  037%=      5-min Rain = 0
KPD3 120314Z 18007KT 29/13 A2994 RMK A01 T02930130  RH  037%=      5-min Rain = 0
KPD3 120315Z 18007KT 29/13 A2995 RMK A01 T02920130  RH  037%=      5-min Rain = 0
KPD3 120316Z 19007KT 29/13 A2995 RMK A01 T02920130  RH  037%=      5-min Rain = 0
KPD3 120317Z 21008KT 29/13 A2995 RMK A01 T02930131  RH  037%=      5-min Rain = 0
KPD3 120318Z 24013G18KT 29/13 A2996 RMK A01 T02940131  RH  037%=      5-min Rain = 0
KPD3 120319Z 26016KT 29/13 A2997 RMK A01 T02930133  RH  037%=      5-min Rain = 0
KPD3 120320Z 25018G23KT 29/14 A2997 RMK A01 T02940137  RH  038%=      5-min Rain = 0
KPD3 120321Z 25022KT 30/15 A2997 RMK A01 T03020147  RH  039%=      5-min Rain = 0
KPD3 120322Z 25022KT 31/15 A2997 RMK A01 T03080150  RH  038%=      5-min Rain = 0
KPD3 120323Z 25020G25KT 31/15 A2998 RMK A01 T03100150  RH  038%=      5-min Rain = 0
KPD3 120324Z 26022G27KT 31/15 A2998 RMK A01 T03100151  RH  038%=      5-min Rain = 0
KPD3 120325Z 26021KT 31/15 A2998 RMK A01 T03100152  RH  038%=      5-min Rain = 0
KPD3 120326Z 26022KT 31/15 A2998 RMK A01 T03100152  RH  038%=      5-min Rain = 0
KPD3 120327Z 26021KT 31/15 A2998 RMK A01 T03100152  RH  038%=      5-min Rain = 0
KPD3 120328Z 25022KT 31/15 A2998 RMK A01 T03100152  RH  038%=      5-min Rain = 0
KPD3 120329Z 26021G28KT 31/15 A2998 RMK A01 T03090152  RH  039%=      5-min Rain = 0
KPD3 120330Z 26017KT 31/15 A2999 RMK A01 T03090153  RH  039%=      5-min Rain = 0
KPD3 120331Z 27016G21KT 31/15 A2999 RMK A01 T03080153  RH  039%=      5-min Rain = 0
KPD3 120332Z 27017G22KT 31/15 A2999 RMK A01 T03070153  RH  039%=      5-min Rain = 0
KPD3 120333Z 26015KT 31/15 A2999 RMK A01 T03060153  RH  040%=      5-min Rain = 0
KPD3 120334Z 27018G23KT 30/15 A2999 RMK A01 T03040153  RH  040%=      5-min Rain = 0
KPD3 120335Z 27019KT 30/15 A2999 RMK A01 T03040153  RH  040%=      5-min Rain = 0
KPD3 120336Z 27015G20KT 30/15 A2999 RMK A01 T03040154  RH  040%=      5-min Rain = 0
KPD3 120337Z 27017KT 30/15 A2999 RMK A01 T03030154  RH  040%=      5-min Rain = 0
KPD3 120338Z 26019KT 30/15 A2999 RMK A01 T03020154  RH  041%=      5-min Rain = 0
KPD3 120339Z 26017KT 30/15 A2999 RMK A01 T03020154  RH  041%=      5-min Rain = 0
KPD3 120340Z 26017KT 30/15 A2999 RMK A01 T03020154  RH  041%=      5-min Rain = 0
KPD3 120341Z 26017KT 30/15 A2999 RMK A01 T03010154  RH  041%=      5-min Rain = 0
KPD3 120342Z 26016KT 30/15 A2999 RMK A01 T03010154  RH  041%=      5-min Rain = 0
KPD3 120343Z 26016KT 30/15 A2999 RMK A01 T03000154  RH  041%=      5-min Rain = 0
KPD3 120344Z 26014KT 30/16 A2999 RMK A01 T03000155  RH  041%=      5-min Rain = 0
KPD3 120345Z 26011KT 30/15 A2999 RMK A01 T03000154  RH  041%=      5-min Rain = 0
KPD3 120346Z 26012KT 30/15 A2999 RMK A01 T02990154  RH  041%=      5-min Rain = 0
KPD3 120347Z 27015KT 30/15 A2999 RMK A01 T02980154  RH  042%=      5-min Rain = 0
KPD3 120348Z 27012KT 30/16 A2999 RMK A01 T02980155  RH  042%=      5-min Rain = 0
KPD3 120349Z 27012KT 30/16 A2999 RMK A01 T02980155  RH  042%=      5-min Rain = 0
KPD3 120350Z 28011KT 30/16 A2999 RMK A01 T02980155  RH  042%=      5-min Rain = 0
KPD3 120351Z 27009KT 30/16 A2999 RMK A01 T02980155  RH  042%=      5-min Rain = 0
KPD3 120352Z 27010KT 30/16 A2999 RMK A01 T02970155  RH  042%=      5-min Rain = 0
KPD3 120353Z 28012KT 30/16 A2999 RMK A01 T02960155  RH  042%=      5-min Rain = 0
KPD3 120354Z 28010KT 30/16 A30 RMK A01 T02970155  RH  042%=      5-min Rain = 0
KPD3 120355Z 28012KT 30/16 A2999 RMK A01 T02970155  RH  042%=      5-min Rain = 0
KPD3 120356Z 28011KT 30/16 A2999 RMK A01 T02970156  RH  042%=      5-min Rain = 0
KPD3 120357Z 28011KT 30/16 A2999 RMK A01 T02960155  RH  042%=      5-min Rain = 0
KPD3 120358Z 27011KT 30/16 A2999 RMK A01 T02970156  RH  042%=      5-min Rain = 0
KPD3 120359Z 28012G17KT 30/16 A2999 RMK A01 T02970156  RH  042%=      5-min Rain = 0
KPD3 120400Z 29012KT 30/16 A2999 RMK A01 T02970156  RH  042%=      5-min Rain = 0
KPD3 120401Z 28012KT 30/16 A2999 RMK A01 T02970156  RH  042%=      5-min Rain = 0
KPD3 120402Z 29010KT 30/16 A2999 RMK A01 T02970156  RH  042%=      5-min Rain = 0
KPD3 120403Z 29010KT 30/16 A2999 RMK A01 T02970156  RH  043%=      5-min Rain = 0
KPD3 120404Z 29008KT 30/16 A2999 RMK A01 T02960156  RH  043%=      5-min Rain = 0
KPD3 120405Z 29008KT 30/16 A30 RMK A01 T02960156  RH  043%=      5-min Rain = 0
KPD3 120406Z 29008KT 30/16 A30 RMK A01 T02950156  RH  043%=      5-min Rain = 0
KPD3 120407Z 30007KT 29/16 A30 RMK A01 T02940156  RH  043%=      5-min Rain = 0
KPD3 120408Z 30007KT 29/16 A30 RMK A01 T02930156  RH  043%=      5-min Rain = 0
KPD3 120409Z 31007KT 29/16 A30 RMK A01 T02930156  RH  043%=      5-min Rain = 0
KPD3 120410Z 31011KT 29/16 A30 RMK A01 T02920155  RH  044%=      5-min Rain = 0
KPD3 120411Z 31008KT 29/16 A30 RMK A01 T02920155  RH  044%=      5-min Rain = 0
KPD3 120412Z 30008KT 29/16 A30 RMK A01 T02920155  RH  044%=      5-min Rain = 0
KPD3 120413Z 30009KT 29/16 A30 RMK A01 T02920156  RH  044%=      5-min Rain = 0
KPD3 120414Z 31008KT 29/16 A30 RMK A01 T02910156  RH  044%=      5-min Rain = 0
KPD3 120415Z 30008KT 29/16 A30 RMK A01 T02910156  RH  044%=      5-min Rain = 0
KPD3 120416Z 31009KT 29/16 A30 RMK A01 T02900156  RH  044%=      5-min Rain = 0
KPD3 120417Z 30009KT 29/16 A30 RMK A01 T02900156  RH  044%=      5-min Rain = 0
KPD3 120418Z 30008KT 29/16 A30 RMK A01 T02910157  RH  044%=      5-min Rain = 0
KPD3 120419Z 30009KT 29/16 A30 RMK A01 T02900156  RH  044%=      5-min Rain = 0
KPD3 120420Z 31009KT 29/16 A30 RMK A01 T02900156  RH  044%=      5-min Rain = 0
KPD3 120421Z 32009KT 29/16 A30 RMK A01 T02890157  RH  044%=      5-min Rain = 0
KPD3 120422Z 31010KT 29/16 A30 RMK A01 T02890157  RH  045%=      5-min Rain = 0
KPD3 120423Z 32010KT 29/16 A30 RMK A01 T02880157  RH  045%=      5-min Rain = 0
KPD3 120424Z 32008KT 29/16 A30 RMK A01 T02880157  RH  045%=      5-min Rain = 0
KPD3 120425Z 32010KT 29/16 A30 RMK A01 T02870157  RH  045%=      5-min Rain = 0
KPD3 120426Z 32010KT 29/16 A30 RMK A01 T02860158  RH  046%=      5-min Rain = 0
KPD3 120427Z 32009KT 29/16 A30 RMK A01 T02850160  RH  047%=      5-min Rain = 0
KPD3 120428Z 32010KT 28/16 A30 RMK A01 T02840160  RH  047%=      5-min Rain = 0
KPD3 120429Z 31010KT 28/16 A30 RMK A01 T02830161  RH  047%=      5-min Rain = 0
KPD3 120430Z 31012KT 28/16 A30 RMK A01 T02830162  RH  048%=      5-min Rain = 0
KPD3 120431Z 32012KT 28/16 A30 RMK A01 T02820162  RH  048%=      5-min Rain = 0
KPD3 120432Z 31013KT 28/16 A30 RMK A01 T02820163  RH  048%=      5-min Rain = 0
KPD3 120433Z 32011KT 28/16 A30 RMK A01 T02820163  RH  048%=      5-min Rain = 0
KPD3 120434Z 31011KT 28/16 A30 RMK A01 T02800163  RH  049%=      5-min Rain = 0
KPD3 120435Z 31010KT 28/16 A30 RMK A01 T02800163  RH  049%=      5-min Rain = 0
KPD3 120436Z 31009KT 28/16 A2999 RMK A01 T02790163  RH  049%=      5-min Rain = 0
KPD3 120437Z 31009KT 28/16 A2999 RMK A01 T02780163  RH  049%=      5-min Rain = 0
KPD3 120438Z 31008KT 28/16 A2999 RMK A01 T02780163  RH  050%=      5-min Rain = 0
KPD3 120439Z 31008KT 28/16 A2999 RMK A01 T02770163  RH  050%=      5-min Rain = 0
KPD3 120440Z 31008KT 28/16 A2999 RMK A01 T02770163  RH  050%=      5-min Rain = 0
KPD3 120441Z 31009KT 28/16 A2999 RMK A01 T02760163  RH  050%=      5-min Rain = 0
KPD3 120442Z 31007KT 28/16 A2999 RMK A01 T02760163  RH  050%=      5-min Rain = 0
KPD3 120443Z 31007KT 28/16 A2999 RMK A01 T02760163  RH  050%=      5-min Rain = 0
KPD3 120444Z 30007KT 28/16 A2999 RMK A01 T02760163  RH  050%=      5-min Rain = 0
KPD3 120445Z 30006KT 28/16 A30 RMK A01 T02750163  RH  051%=      5-min Rain = 0
KPD3 120446Z 30006KT 27/16 A30 RMK A01 T02740163  RH  051%=      5-min Rain = 0
KPD3 120447Z 31007KT 27/16 A2999 RMK A01 T02730163  RH  051%=      5-min Rain = 0
KPD3 120448Z 31006KT 27/16 A2999 RMK A01 T02730163  RH  051%=      5-min Rain = 0
KPD3 120449Z 31006KT 27/16 A2999 RMK A01 T02730163  RH  051%=      5-min Rain = 0
KPD3 120450Z 31007KT 27/16 A2999 RMK A01 T02730164  RH  051%=      5-min Rain = 0
KPD3 120451Z 32006KT 27/16 A2999 RMK A01 T02730164  RH  051%=      5-min Rain = 0
KPD3 120452Z 32006KT 27/16 A2999 RMK A01 T02730164  RH  051%=      5-min Rain = 0
KPD3 120453Z 33005KT 27/16 A2999 RMK A01 T02720163  RH  052%=      5-min Rain = 0
KPD3 120454Z 33005KT 27/16 A2999 RMK A01 T02710163  RH  052%=      5-min Rain = 0
KPD3 120455Z 33005KT 27/16 A2999 RMK A01 T02700163  RH  052%=      5-min Rain = 0
KPD3 120456Z 33004KT 27/16 A2999 RMK A01 T02690163  RH  052%=      5-min Rain = 0
KPD3 120457Z 33004KT 27/16 A2999 RMK A01 T02690163  RH  052%=      5-min Rain = 0
KPD3 120458Z 33004KT 27/16 A2999 RMK A01 T02680163  RH  052%=      5-min Rain = 0
KPD3 120459Z 34005KT 27/16 A2999 RMK A01 T02680163  RH  053%=      5-min Rain = 0

Page generated in 0.0708 seconds.